UAL26L KMCO-LIMC
Flight info
| Callsign | UAL26L |
|---|---|
| Flight time | 8h 57m |
| Altitude | 35000 |
| Route | FATHE4 VIYAP Q87 JROSS Q135 RAPZZ PRONI PUNGO PHITZ DWSEN KW54A PREPI KB63C MONTK VITOL NANSO N55B RAFIN 4550N 4740N 4730N 4720N 4715N SEPAL UN470 LAPEX GALOF PECNO VALKU TIS MEBAK GIPNO BALSI GIGUS MEDAM LAPRI MOGBO TOP M135 ASTIG |
| Aircraft | MD11/H-SDE1E2E3FGHIJ2J3J4J5M1RWXYZ/LB1D1 |
Departure
| Time | 2026-04-25 13:57 |
|---|---|
| Airport | Orlando International Airport (KMCO) |
Arrival
| Time | 2026-04-25 22:54 |
|---|---|
| Airport | Milan Malpensa International Airport (LIMC) |
| Time | Latitude | Longitude | Altitude | Speed | Heading |
|---|---|---|---|---|---|
| 2026-04-25 13:00 | 28.42884 | -81.31635 | 107 ft | 0 kts | 128° |
| 2026-04-25 13:18 | 28.42884 | -81.31637 | 107 ft | 2 kts | 128° |
| 2026-04-25 13:18 | 28.42902 | -81.31658 | 105 ft | 4 kts | 141° |
| 2026-04-25 13:18 | 28.42924 | -81.31673 | 105 ft | 4 kts | 168° |
| 2026-04-25 13:19 | 28.42943 | -81.31674 | 104 ft | 0 kts | 194° |
| 2026-04-25 13:22 | 28.42942 | -81.31675 | 104 ft | 1 kts | 195° |
| 2026-04-25 13:22 | 28.42939 | -81.31677 | 105 ft | 1 kts | 213° |
| 2026-04-25 13:22 | 28.42937 | -81.31690 | 103 ft | 4 kts | 268° |
| 2026-04-25 13:23 | 28.42942 | -81.31723 | 106 ft | 0 kts | 289° |
| 2026-04-25 13:24 | 28.42952 | -81.31747 | 107 ft | 6 kts | 296° |
| 2026-04-25 13:24 | 28.42984 | -81.31806 | 108 ft | 9 kts | 308° |
| 2026-04-25 13:24 | 28.43058 | -81.31838 | 108 ft | 15 kts | 354° |
| 2026-04-25 13:24 | 28.43182 | -81.31840 | 107 ft | 20 kts | 359° |
| 2026-04-25 13:25 | 28.43324 | -81.31842 | 106 ft | 20 kts | 359° |
| 2026-04-25 13:25 | 28.43457 | -81.31844 | 108 ft | 18 kts | 359° |
| 2026-04-25 13:25 | 28.43573 | -81.31845 | 110 ft | 16 kts | 359° |
| 2026-04-25 13:25 | 28.43679 | -81.31846 | 110 ft | 15 kts | 359° |
| 2026-04-25 13:26 | 28.43779 | -81.31846 | 111 ft | 14 kts | 360° |
| 2026-04-25 13:26 | 28.43841 | -81.31847 | 110 ft | 12 kts | 359° |
| 2026-04-25 13:26 | 28.43909 | -81.31823 | 110 ft | 11 kts | 52° |
| 2026-04-25 13:26 | 28.43923 | -81.31721 | 110 ft | 15 kts | 88° |
| 2026-04-25 13:27 | 28.43925 | -81.31579 | 107 ft | 22 kts | 89° |
| 2026-04-25 13:27 | 28.43929 | -81.31371 | 106 ft | 31 kts | 87° |
| 2026-04-25 13:27 | 28.43940 | -81.31125 | 118 ft | 30 kts | 86° |
| 2026-04-25 13:27 | 28.43943 | -81.30884 | 114 ft | 30 kts | 91° |
| 2026-04-25 13:28 | 28.43932 | -81.30685 | 126 ft | 25 kts | 94° |
| 2026-04-25 13:28 | 28.43923 | -81.30536 | 105 ft | 31 kts | 94° |
| 2026-04-25 13:28 | 28.43919 | -81.30478 | 105 ft | 1 kts | 94° |
| 2026-04-25 13:28 | 28.43919 | -81.30471 | 105 ft | 0 kts | 94° |
| 2026-04-25 13:29 | 28.43918 | -81.30459 | 105 ft | 4 kts | 93° |
| 2026-04-25 13:29 | 28.43916 | -81.30422 | 106 ft | 6 kts | 94° |
| 2026-04-25 13:30 | 28.43908 | -81.30260 | 107 ft | 18 kts | 92° |
| 2026-04-25 13:30 | 28.43901 | -81.30080 | 108 ft | 28 kts | 94° |
| 2026-04-25 13:30 | 28.43834 | -81.29879 | 108 ft | 26 kts | 135° |
| 2026-04-25 13:31 | 28.43715 | -81.29813 | 109 ft | 0 kts | 171° |
| 2026-04-25 13:32 | 28.43711 | -81.29812 | 109 ft | 1 kts | 171° |
| 2026-04-25 13:32 | 28.43693 | -81.29810 | 109 ft | 8 kts | 174° |
| 2026-04-25 13:33 | 28.43631 | -81.29806 | 109 ft | 6 kts | 178° |
| 2026-04-25 13:33 | 28.43605 | -81.29806 | 109 ft | 5 kts | 179° |
| 2026-04-25 13:33 | 28.43559 | -81.29775 | 109 ft | 11 kts | 117° |
| 2026-04-25 13:33 | 28.43521 | -81.29719 | 109 ft | 16 kts | 156° |
| 2026-04-25 13:34 | 28.43385 | -81.29710 | 111 ft | 15 kts | 179° |
| 2026-04-25 13:34 | 28.43251 | -81.29709 | 109 ft | 25 kts | 179° |
| 2026-04-25 13:34 | 28.43051 | -81.29707 | 109 ft | 31 kts | 180° |
| 2026-04-25 13:34 | 28.42828 | -81.29704 | 109 ft | 33 kts | 179° |
| 2026-04-25 13:35 | 28.42594 | -81.29702 | 106 ft | 22 kts | 180° |
| 2026-04-25 13:35 | 28.42569 | -81.29702 | 106 ft | 0 kts | 180° |
| 2026-04-25 13:36 | 28.42556 | -81.29702 | 107 ft | 5 kts | 180° |
| 2026-04-25 13:36 | 28.42504 | -81.29702 | 107 ft | 5 kts | 179° |
| 2026-04-25 13:36 | 28.42503 | -81.29702 | 107 ft | 0 kts | 179° |
| 2026-04-25 13:37 | 28.42493 | -81.29702 | 107 ft | 6 kts | 179° |
| 2026-04-25 13:37 | 28.42410 | -81.29701 | 107 ft | 17 kts | 179° |
| 2026-04-25 13:38 | 28.42298 | -81.29680 | 106 ft | 16 kts | 136° |
| 2026-04-25 13:38 | 28.42283 | -81.29548 | 104 ft | 19 kts | 89° |
| 2026-04-25 13:38 | 28.42284 | -81.29383 | 109 ft | 22 kts | 89° |
| 2026-04-25 13:38 | 28.42286 | -81.29192 | 109 ft | 26 kts | 88° |
| 2026-04-25 13:39 | 28.42329 | -81.28981 | 110 ft | 28 kts | 69° |
| 2026-04-25 13:39 | 28.42393 | -81.28776 | 110 ft | 27 kts | 70° |
| 2026-04-25 13:39 | 28.42454 | -81.28577 | 111 ft | 26 kts | 71° |
| 2026-04-25 13:39 | 28.42515 | -81.28394 | 112 ft | 22 kts | 55° |
| 2026-04-25 13:40 | 28.42620 | -81.28364 | 109 ft | 15 kts | 359° |
| 2026-04-25 13:40 | 28.42733 | -81.28366 | 110 ft | 18 kts | 359° |
| 2026-04-25 13:40 | 28.42867 | -81.28367 | 106 ft | 21 kts | 359° |
| 2026-04-25 13:40 | 28.43018 | -81.28368 | 106 ft | 22 kts | 360° |
| 2026-04-25 13:41 | 28.43172 | -81.28370 | 105 ft | 23 kts | 359° |
| 2026-04-25 13:41 | 28.43338 | -81.28372 | 104 ft | 24 kts | 359° |
| 2026-04-25 13:41 | 28.43499 | -81.28374 | 108 ft | 23 kts | 359° |
| 2026-04-25 13:41 | 28.43654 | -81.28377 | 110 ft | 22 kts | 0° |
| 2026-04-25 13:42 | 28.43807 | -81.28376 | 109 ft | 22 kts | 359° |
| 2026-04-25 13:42 | 28.43954 | -81.28378 | 112 ft | 20 kts | 360° |
| 2026-04-25 13:42 | 28.44094 | -81.28379 | 111 ft | 20 kts | 359° |
| 2026-04-25 13:42 | 28.44214 | -81.28381 | 110 ft | 10 kts | 359° |
| 2026-04-25 13:43 | 28.44259 | -81.28382 | 111 ft | 0 kts | 359° |
| 2026-04-25 13:44 | 28.44260 | -81.28382 | 111 ft | 2 kts | 359° |
| 2026-04-25 13:44 | 28.44286 | -81.28382 | 111 ft | 4 kts | 359° |
| 2026-04-25 13:45 | 28.44313 | -81.28381 | 111 ft | 4 kts | 7° |
| 2026-04-25 13:45 | 28.44335 | -81.28374 | 111 ft | 3 kts | 20° |
| 2026-04-25 13:45 | 28.44347 | -81.28365 | 111 ft | 0 kts | 43° |
| 2026-04-25 13:54 | 28.44350 | -81.28362 | 109 ft | 3 kts | 44° |
| 2026-04-25 13:55 | 28.44356 | -81.28344 | 110 ft | 3 kts | 76° |
| 2026-04-25 13:55 | 28.44358 | -81.28311 | 110 ft | 6 kts | 92° |
| 2026-04-25 13:55 | 28.44348 | -81.28274 | 109 ft | 2 kts | 136° |
| 2026-04-25 13:55 | 28.44333 | -81.28266 | 110 ft | 3 kts | 158° |
| 2026-04-25 13:56 | 28.44265 | -81.28258 | 109 ft | 21 kts | 178° |
| 2026-04-25 13:56 | 28.43907 | -81.28254 | 110 ft | 84 kts | 180° |
| 2026-04-25 13:56 | 28.43107 | -81.28246 | 106 ft | 144 kts | 179° |
| 2026-04-25 13:56 | 28.41929 | -81.28235 | 180 ft | 189 kts | 184° |
| 2026-04-25 13:57 | 28.40621 | -81.28141 | 982 ft | 182 kts | 170° |
| 2026-04-25 13:57 | 28.40233 | -81.28010 | 1304 ft | 177 kts | 155° |
| 2026-04-25 13:57 | 28.39482 | -81.26058 | 2282 ft | 185 kts | 85° |
| 2026-04-25 13:57 | 28.39608 | -81.24489 | 2589 ft | 213 kts | 85° |
| 2026-04-25 13:58 | 28.39811 | -81.22728 | 2985 ft | 236 kts | 83° |
| 2026-04-25 13:58 | 28.40032 | -81.20826 | 3433 ft | 256 kts | 83° |
| 2026-04-25 13:58 | 28.40268 | -81.18740 | 4088 ft | 265 kts | 82° |
| 2026-04-25 13:58 | 28.40923 | -81.16836 | 4860 ft | 267 kts | 49° |
| 2026-04-25 13:59 | 28.42447 | -81.15671 | 5619 ft | 269 kts | 19° |
| 2026-04-25 13:59 | 28.44301 | -81.15438 | 6380 ft | 272 kts | 352° |
| 2026-04-25 13:59 | 28.46131 | -81.16003 | 7104 ft | 274 kts | 341° |
| 2026-04-25 13:59 | 28.47932 | -81.16712 | 7882 ft | 274 kts | 341° |
| 2026-04-25 14:00 | 28.49768 | -81.17353 | 8631 ft | 276 kts | 343° |
| 2026-04-25 14:00 | 28.51633 | -81.17952 | 9312 ft | 280 kts | 343° |
| 2026-04-25 14:00 | 28.53510 | -81.18567 | 10034 ft | 281 kts | 342° |
| 2026-04-25 14:00 | 28.55414 | -81.19211 | 10512 ft | 290 kts | 342° |
| 2026-04-25 14:01 | 28.57353 | -81.19865 | 11176 ft | 291 kts | 342° |
| 2026-04-25 14:01 | 28.59305 | -81.20518 | 11808 ft | 294 kts | 342° |
| 2026-04-25 14:01 | 28.61275 | -81.21176 | 12443 ft | 296 kts | 342° |
| 2026-04-25 14:01 | 28.63259 | -81.21842 | 13075 ft | 298 kts | 342° |
| 2026-04-25 14:02 | 28.65256 | -81.22512 | 13706 ft | 300 kts | 342° |
| 2026-04-25 14:02 | 28.67271 | -81.23188 | 14248 ft | 303 kts | 342° |
| 2026-04-25 14:02 | 28.69354 | -81.23889 | 14447 ft | 325 kts | 342° |
| 2026-04-25 14:02 | 28.70098 | -81.24140 | 14437 ft | 335 kts | 342° |
| 2026-04-25 14:03 | 28.74059 | -81.25471 | 14448 ft | 378 kts | 342° |
| 2026-04-25 14:03 | 28.76605 | -81.26324 | 15090 ft | 382 kts | 342° |
| 2026-04-25 14:03 | 28.79166 | -81.27184 | 15729 ft | 386 kts | 342° |
| 2026-04-25 14:03 | 28.81754 | -81.28057 | 16358 ft | 390 kts | 342° |
| 2026-04-25 14:04 | 28.84393 | -81.28843 | 16964 ft | 395 kts | 351° |
| 2026-04-25 14:04 | 28.87153 | -81.29071 | 17485 ft | 401 kts | 354° |
| 2026-04-25 14:04 | 28.89946 | -81.29329 | 18084 ft | 405 kts | 353° |
| 2026-04-25 14:04 | 28.92772 | -81.29591 | 18618 ft | 409 kts | 353° |
| 2026-04-25 14:05 | 28.95620 | -81.29829 | 19206 ft | 411 kts | 354° |
| 2026-04-25 14:05 | 28.98482 | -81.30063 | 19747 ft | 413 kts | 354° |
| 2026-04-25 14:05 | 29.01353 | -81.30404 | 20265 ft | 415 kts | 352° |
| 2026-04-25 14:05 | 29.04207 | -81.30711 | 20787 ft | 418 kts | 353° |
| 2026-04-25 14:06 | 29.07146 | -81.31003 | 21292 ft | 421 kts | 353° |
| 2026-04-25 14:06 | 29.10068 | -81.31328 | 21788 ft | 423 kts | 352° |
| 2026-04-25 14:06 | 29.13012 | -81.31521 | 22208 ft | 426 kts | 355° |
| 2026-04-25 14:06 | 29.15981 | -81.31711 | 22691 ft | 428 kts | 354° |
| 2026-04-25 14:07 | 29.18966 | -81.31914 | 23143 ft | 431 kts | 355° |
| 2026-04-25 14:07 | 29.21968 | -81.32092 | 23584 ft | 433 kts | 355° |
| 2026-04-25 14:07 | 29.24985 | -81.32261 | 23939 ft | 436 kts | 355° |
| 2026-04-25 14:07 | 29.27984 | -81.32440 | 24278 ft | 439 kts | 355° |
| 2026-04-25 14:08 | 29.31041 | -81.32630 | 24645 ft | 441 kts | 355° |
| 2026-04-25 14:08 | 29.34112 | -81.32816 | 24995 ft | 443 kts | 355° |
| 2026-04-25 14:08 | 29.37193 | -81.32999 | 25345 ft | 445 kts | 356° |
| 2026-04-25 14:08 | 29.40297 | -81.33185 | 25671 ft | 447 kts | 356° |
| 2026-04-25 14:09 | 29.43409 | -81.33374 | 25998 ft | 449 kts | 356° |
| 2026-04-25 14:09 | 29.46536 | -81.33563 | 26326 ft | 451 kts | 356° |
| 2026-04-25 14:09 | 29.49681 | -81.33752 | 26637 ft | 453 kts | 356° |
| 2026-04-25 14:09 | 29.50748 | -81.33817 | 26743 ft | 454 kts | 356° |
| 2026-04-25 14:10 | 29.56017 | -81.34135 | 27254 ft | 458 kts | 356° |
| 2026-04-25 14:10 | 29.59202 | -81.34328 | 27543 ft | 460 kts | 356° |
| 2026-04-25 14:10 | 29.62403 | -81.34521 | 27842 ft | 461 kts | 356° |
| 2026-04-25 14:10 | 29.65618 | -81.34715 | 28130 ft | 463 kts | 356° |
| 2026-04-25 14:11 | 29.67752 | -81.34837 | 28309 ft | 465 kts | 357° |
| 2026-04-25 14:11 | 29.71938 | -81.35070 | 28670 ft | 467 kts | 357° |
| 2026-04-25 14:11 | 29.75147 | -81.35253 | 28937 ft | 469 kts | 357° |
| 2026-04-25 14:11 | 29.77346 | -81.35381 | 29115 ft | 470 kts | 357° |
| 2026-04-25 14:12 | 29.80615 | -81.35571 | 29370 ft | 471 kts | 357° |
| 2026-04-25 14:12 | 29.84968 | -81.35819 | 29697 ft | 474 kts | 357° |
| 2026-04-25 14:12 | 29.88271 | -81.36008 | 29942 ft | 475 kts | 357° |
| 2026-04-25 14:12 | 29.91578 | -81.36199 | 30150 ft | 477 kts | 357° |
| 2026-04-25 14:13 | 29.94897 | -81.36390 | 30341 ft | 478 kts | 357° |
| 2026-04-25 14:13 | 29.97149 | -81.36520 | 30466 ft | 479 kts | 357° |
| 2026-04-25 14:13 | 30.01570 | -81.36774 | 30712 ft | 481 kts | 357° |
| 2026-04-25 14:13 | 30.03837 | -81.36905 | 30813 ft | 482 kts | 357° |
| 2026-04-25 14:14 | 30.07189 | -81.37098 | 30983 ft | 484 kts | 357° |
| 2026-04-25 14:14 | 30.10518 | -81.37290 | 31143 ft | 485 kts | 357° |
| 2026-04-25 14:14 | 30.13937 | -81.37488 | 31341 ft | 486 kts | 357° |
| 2026-04-25 14:14 | 30.17271 | -81.37680 | 31600 ft | 485 kts | 357° |
| 2026-04-25 14:15 | 30.20641 | -81.37875 | 31846 ft | 485 kts | 357° |
| 2026-04-25 14:15 | 30.22912 | -81.38006 | 32007 ft | 484 kts | 357° |
| 2026-04-25 14:15 | 30.27369 | -81.38265 | 32323 ft | 484 kts | 357° |
| 2026-04-25 14:15 | 30.30731 | -81.38459 | 32554 ft | 483 kts | 357° |
| 2026-04-25 14:16 | 30.34084 | -81.38654 | 32792 ft | 483 kts | 357° |
| 2026-04-25 14:16 | 30.37442 | -81.38849 | 33009 ft | 483 kts | 357° |
| 2026-04-25 14:16 | 30.40794 | -81.39043 | 33247 ft | 482 kts | 356° |
| 2026-04-25 14:16 | 30.44143 | -81.39238 | 33472 ft | 482 kts | 356° |
| 2026-04-25 14:17 | 30.47494 | -81.39432 | 33700 ft | 481 kts | 356° |
| 2026-04-25 14:17 | 30.50657 | -81.39599 | 33910 ft | 481 kts | 357° |
| 2026-04-25 14:17 | 30.54002 | -81.39765 | 34123 ft | 480 kts | 357° |
| 2026-04-25 14:17 | 30.57341 | -81.39939 | 34331 ft | 479 kts | 356° |
| 2026-04-25 14:18 | 30.60678 | -81.40121 | 34545 ft | 478 kts | 356° |
| 2026-04-25 14:18 | 30.64004 | -81.40300 | 34730 ft | 478 kts | 356° |
| 2026-04-25 14:18 | 30.67325 | -81.40473 | 34907 ft | 478 kts | 356° |
| 2026-04-25 14:19 | 30.73996 | -81.40827 | 34973 ft | 480 kts | 356° |
| 2026-04-25 14:19 | 30.80637 | -81.41180 | 34965 ft | 477 kts | 356° |
| 2026-04-25 14:20 | 30.87275 | -81.41532 | 34961 ft | 476 kts | 356° |
| 2026-04-25 14:20 | 30.93852 | -81.41883 | 34952 ft | 477 kts | 356° |
| 2026-04-25 14:21 | 31.00524 | -81.42239 | 34954 ft | 477 kts | 356° |
| 2026-04-25 14:21 | 31.07149 | -81.42593 | 34949 ft | 477 kts | 356° |
| 2026-04-25 14:22 | 31.13594 | -81.42937 | 34938 ft | 476 kts | 356° |
| 2026-04-25 14:22 | 31.20178 | -81.43290 | 34939 ft | 476 kts | 356° |
| 2026-04-25 14:23 | 31.26742 | -81.42465 | 34987 ft | 480 kts | 16° |
| 2026-04-25 14:23 | 31.32919 | -81.39415 | 34976 ft | 484 kts | 23° |
| 2026-04-25 14:24 | 31.38960 | -81.36118 | 34970 ft | 483 kts | 23° |
| 2026-04-25 14:24 | 31.45059 | -81.32817 | 34963 ft | 482 kts | 23° |
| 2026-04-25 14:25 | 31.51075 | -81.29543 | 34963 ft | 482 kts | 23° |
| 2026-04-25 14:25 | 31.57162 | -81.26230 | 34952 ft | 481 kts | 23° |
| 2026-04-25 14:26 | 31.63219 | -81.22928 | 34950 ft | 480 kts | 23° |
| 2026-04-25 14:26 | 31.69250 | -81.19636 | 34939 ft | 481 kts | 23° |
| 2026-04-25 14:27 | 31.75330 | -81.16312 | 34935 ft | 482 kts | 23° |
| 2026-04-25 14:27 | 31.81423 | -81.12976 | 34929 ft | 483 kts | 23° |
| 2026-04-25 14:28 | 31.87515 | -81.09635 | 34925 ft | 482 kts | 23° |
| 2026-04-25 14:28 | 31.93428 | -81.06388 | 34923 ft | 482 kts | 23° |
| 2026-04-25 14:29 | 31.99506 | -81.03046 | 34921 ft | 481 kts | 23° |
| 2026-04-25 14:29 | 32.05555 | -80.99674 | 34921 ft | 483 kts | 24° |
| 2026-04-25 14:30 | 32.11642 | -80.96261 | 34922 ft | 484 kts | 24° |
| 2026-04-25 14:30 | 32.20737 | -80.91165 | 34953 ft | 484 kts | 24° |
| 2026-04-25 14:31 | 32.26814 | -80.87753 | 34950 ft | 481 kts | 24° |
| 2026-04-25 14:31 | 32.32866 | -80.84350 | 34951 ft | 483 kts | 24° |
| 2026-04-25 14:32 | 32.38943 | -80.80928 | 34949 ft | 484 kts | 24° |
| 2026-04-25 14:32 | 32.45034 | -80.77492 | 34950 ft | 484 kts | 24° |
| 2026-04-25 14:33 | 32.51117 | -80.74055 | 34951 ft | 484 kts | 24° |
| 2026-04-25 14:33 | 32.57199 | -80.70614 | 34951 ft | 485 kts | 24° |
| 2026-04-25 14:34 | 32.63263 | -80.67179 | 34950 ft | 486 kts | 24° |
| 2026-04-25 14:34 | 32.69327 | -80.63630 | 34952 ft | 486 kts | 32° |
| 2026-04-25 14:35 | 32.74380 | -80.58313 | 34945 ft | 489 kts | 47° |
| 2026-04-25 14:35 | 32.78879 | -80.52228 | 34939 ft | 490 kts | 47° |
| 2026-04-25 14:36 | 32.83380 | -80.46125 | 34937 ft | 491 kts | 47° |
| 2026-04-25 14:36 | 32.87887 | -80.40016 | 34941 ft | 491 kts | 47° |
| 2026-04-25 14:37 | 32.92379 | -80.33906 | 34945 ft | 490 kts | 47° |
| 2026-04-25 14:37 | 32.96864 | -80.27803 | 34941 ft | 489 kts | 47° |
| 2026-04-25 14:38 | 33.01343 | -80.21692 | 34944 ft | 489 kts | 47° |
| 2026-04-25 14:38 | 33.05820 | -80.15577 | 34933 ft | 489 kts | 48° |
| 2026-04-25 14:39 | 33.10278 | -80.09477 | 34948 ft | 488 kts | 48° |
| 2026-04-25 14:39 | 33.14746 | -80.03351 | 34951 ft | 489 kts | 48° |
| 2026-04-25 14:40 | 33.19178 | -79.97267 | 34950 ft | 489 kts | 48° |
| 2026-04-25 14:40 | 33.23591 | -79.91198 | 34948 ft | 488 kts | 48° |
| 2026-04-25 14:41 | 33.28037 | -79.85073 | 34939 ft | 488 kts | 48° |
| 2026-04-25 14:41 | 33.32499 | -79.78916 | 34948 ft | 490 kts | 48° |
| 2026-04-25 14:42 | 33.35481 | -79.74796 | 34940 ft | 489 kts | 48° |
| 2026-04-25 14:42 | 33.41398 | -79.66604 | 34945 ft | 489 kts | 48° |
| 2026-04-25 14:43 | 33.45843 | -79.60439 | 34942 ft | 489 kts | 48° |
| 2026-04-25 14:43 | 33.50286 | -79.54266 | 34947 ft | 489 kts | 48° |
| 2026-04-25 14:44 | 33.54715 | -79.48102 | 34946 ft | 492 kts | 48° |
| 2026-04-25 14:44 | 33.59178 | -79.41880 | 34957 ft | 492 kts | 48° |
| 2026-04-25 14:45 | 33.63618 | -79.35679 | 34935 ft | 488 kts | 48° |
| 2026-04-25 14:45 | 33.68044 | -79.29488 | 34934 ft | 489 kts | 48° |
| 2026-04-25 14:46 | 33.72471 | -79.23293 | 34941 ft | 489 kts | 48° |
| 2026-04-25 14:46 | 33.76906 | -79.17077 | 34952 ft | 492 kts | 48° |
| 2026-04-25 14:47 | 33.79859 | -79.12931 | 34949 ft | 493 kts | 48° |
| 2026-04-25 14:47 | 33.85781 | -79.04605 | 34951 ft | 493 kts | 49° |
| 2026-04-25 14:48 | 33.90218 | -78.98351 | 34948 ft | 490 kts | 49° |
| 2026-04-25 14:48 | 33.94636 | -78.92117 | 34941 ft | 490 kts | 49° |
| 2026-04-25 14:49 | 33.99056 | -78.85865 | 34929 ft | 491 kts | 49° |
| 2026-04-25 14:49 | 34.03504 | -78.79567 | 34925 ft | 493 kts | 49° |
| 2026-04-25 14:50 | 34.07945 | -78.73263 | 34944 ft | 493 kts | 49° |
| 2026-04-25 14:50 | 34.12361 | -78.66987 | 34938 ft | 493 kts | 49° |
| 2026-04-25 14:51 | 34.16771 | -78.60706 | 34948 ft | 489 kts | 49° |
| 2026-04-25 14:51 | 34.21175 | -78.54424 | 34945 ft | 490 kts | 49° |
| 2026-04-25 14:52 | 34.25387 | -78.47887 | 34965 ft | 495 kts | 60° |
| 2026-04-25 14:52 | 34.27403 | -78.42870 | 34945 ft | 497 kts | 64° |
| 2026-04-25 14:53 | 34.31264 | -78.32791 | 34938 ft | 496 kts | 64° |
| 2026-04-25 14:53 | 34.34179 | -78.25217 | 34931 ft | 496 kts | 64° |
| 2026-04-25 14:54 | 34.37075 | -78.17639 | 34935 ft | 496 kts | 64° |
| 2026-04-25 14:54 | 34.39969 | -78.10074 | 34939 ft | 495 kts | 64° |
| 2026-04-25 14:55 | 34.42857 | -78.02492 | 34939 ft | 498 kts | 64° |
| 2026-04-25 14:55 | 34.45757 | -77.94869 | 34945 ft | 498 kts | 64° |
| 2026-04-25 14:56 | 34.48642 | -77.87262 | 34942 ft | 496 kts | 64° |
| 2026-04-25 14:56 | 34.51518 | -77.79665 | 34944 ft | 495 kts | 64° |
| 2026-04-25 14:57 | 34.54386 | -77.72068 | 34940 ft | 496 kts | 64° |
| 2026-04-25 14:57 | 34.55973 | -77.68429 | 34957 ft | 493 kts | 53° |
| 2026-04-25 14:57 | 34.57365 | -77.66189 | 34953 ft | 493 kts | 46° |
| 2026-04-25 14:58 | 34.63089 | -77.59455 | 34947 ft | 494 kts | 41° |
| 2026-04-25 14:58 | 34.68090 | -77.53736 | 34933 ft | 493 kts | 42° |
| 2026-04-25 14:59 | 34.72228 | -77.48958 | 34932 ft | 493 kts | 42° |
| 2026-04-25 14:59 | 34.77222 | -77.43218 | 34933 ft | 493 kts | 42° |
| 2026-04-25 15:00 | 34.82196 | -77.37471 | 34931 ft | 493 kts | 42° |
| 2026-04-25 15:00 | 34.87181 | -77.31711 | 34949 ft | 495 kts | 42° |
| 2026-04-25 15:01 | 34.92176 | -77.25925 | 34929 ft | 495 kts | 42° |
| 2026-04-25 15:01 | 34.97163 | -77.20141 | 34938 ft | 494 kts | 42° |
| 2026-04-25 15:02 | 35.02132 | -77.14365 | 34935 ft | 493 kts | 42° |
| 2026-04-25 15:02 | 35.07094 | -77.08590 | 34937 ft | 493 kts | 42° |
| 2026-04-25 15:03 | 35.12065 | -77.02791 | 34937 ft | 496 kts | 42° |
| 2026-04-25 15:03 | 35.17054 | -76.96962 | 34919 ft | 496 kts | 42° |
| 2026-04-25 15:04 | 35.22038 | -76.91129 | 34925 ft | 496 kts | 42° |
| 2026-04-25 15:04 | 35.27019 | -76.85288 | 34923 ft | 495 kts | 42° |
| 2026-04-25 15:05 | 35.31943 | -76.79504 | 34917 ft | 493 kts | 42° |
| 2026-04-25 15:06 | 35.39391 | -76.70735 | 34908 ft | 492 kts | 42° |
| 2026-04-25 15:06 | 35.44321 | -76.64918 | 34908 ft | 492 kts | 42° |
| 2026-04-25 15:07 | 35.49225 | -76.59121 | 34903 ft | 493 kts | 42° |
| 2026-04-25 15:07 | 35.54213 | -76.53216 | 34910 ft | 498 kts | 41° |
| 2026-04-25 15:08 | 35.59201 | -76.47297 | 34911 ft | 497 kts | 41° |
| 2026-04-25 15:08 | 35.64539 | -76.42101 | 34905 ft | 492 kts | 32° |
| 2026-04-25 15:09 | 35.70161 | -76.37272 | 34911 ft | 493 kts | 32° |
| 2026-04-25 15:09 | 35.78609 | -76.29992 | 34906 ft | 495 kts | 32° |
| 2026-04-25 15:10 | 35.84259 | -76.25113 | 34904 ft | 495 kts | 32° |
| 2026-04-25 15:11 | 35.92718 | -76.17793 | 34904 ft | 495 kts | 32° |
| 2026-04-25 15:11 | 35.98354 | -76.12903 | 34905 ft | 495 kts | 32° |
| 2026-04-25 15:12 | 36.06772 | -76.05587 | 34903 ft | 493 kts | 32° |
| 2026-04-25 15:12 | 36.11437 | -76.01523 | 34904 ft | 493 kts | 32° |
| 2026-04-25 15:13 | 36.20770 | -75.93375 | 34903 ft | 495 kts | 31° |
| 2026-04-25 15:14 | 36.26401 | -75.88451 | 34905 ft | 496 kts | 30° |
| 2026-04-25 15:14 | 36.32319 | -75.84179 | 34901 ft | 492 kts | 26° |
| 2026-04-25 15:15 | 36.38268 | -75.79966 | 34919 ft | 492 kts | 26° |
| 2026-04-25 15:15 | 36.44220 | -75.75771 | 34897 ft | 490 kts | 25° |
| 2026-04-25 15:16 | 36.50132 | -75.71583 | 34899 ft | 489 kts | 25° |
| 2026-04-25 15:16 | 36.59006 | -75.65291 | 34899 ft | 489 kts | 25° |
| 2026-04-25 15:17 | 36.67852 | -75.59000 | 34903 ft | 491 kts | 25° |
| 2026-04-25 15:18 | 36.73781 | -75.54774 | 34906 ft | 491 kts | 25° |
| 2026-04-25 15:18 | 36.82679 | -75.48418 | 34922 ft | 491 kts | 25° |
| 2026-04-25 15:19 | 36.87619 | -75.44882 | 34899 ft | 492 kts | 25° |
| 2026-04-25 15:19 | 36.94533 | -75.39923 | 34910 ft | 490 kts | 25° |
| 2026-04-25 15:20 | 37.00437 | -75.35681 | 34906 ft | 489 kts | 25° |
| 2026-04-25 15:20 | 37.06331 | -75.31438 | 34908 ft | 490 kts | 25° |
| 2026-04-25 15:21 | 37.12209 | -75.27199 | 34920 ft | 491 kts | 25° |
| 2026-04-25 15:21 | 37.18173 | -75.22890 | 34927 ft | 491 kts | 25° |
| 2026-04-25 15:22 | 37.24044 | -75.18641 | 34923 ft | 492 kts | 25° |
| 2026-04-25 15:22 | 37.29982 | -75.14334 | 34932 ft | 493 kts | 25° |
| 2026-04-25 15:23 | 37.35916 | -75.10024 | 34932 ft | 493 kts | 25° |
| 2026-04-25 15:23 | 37.41844 | -75.05709 | 34929 ft | 493 kts | 25° |
| 2026-04-25 15:24 | 37.47744 | -75.01406 | 34932 ft | 488 kts | 25° |
| 2026-04-25 15:24 | 37.52628 | -74.97841 | 34934 ft | 488 kts | 25° |
| 2026-04-25 15:25 | 37.59503 | -74.92809 | 34935 ft | 489 kts | 25° |
| 2026-04-25 15:25 | 37.65400 | -74.88677 | 34946 ft | 485 kts | 21° |
| 2026-04-25 15:26 | 37.71471 | -74.84748 | 34945 ft | 489 kts | 21° |
| 2026-04-25 15:26 | 37.77510 | -74.80842 | 34950 ft | 490 kts | 21° |
| 2026-04-25 15:27 | 37.83585 | -74.76907 | 34955 ft | 490 kts | 21° |
| 2026-04-25 15:28 | 37.92700 | -74.70986 | 34952 ft | 491 kts | 21° |
| 2026-04-25 15:28 | 37.98765 | -74.67034 | 34956 ft | 490 kts | 21° |
| 2026-04-25 15:29 | 38.04782 | -74.63110 | 34961 ft | 488 kts | 21° |
| 2026-04-25 15:29 | 38.10813 | -74.59169 | 34980 ft | 488 kts | 21° |
| 2026-04-25 15:30 | 38.14688 | -74.56633 | 34984 ft | 490 kts | 21° |
| 2026-04-25 15:30 | 38.22771 | -74.51332 | 34986 ft | 491 kts | 21° |
| 2026-04-25 15:31 | 38.28843 | -74.47341 | 34994 ft | 491 kts | 21° |
| 2026-04-25 15:31 | 38.34918 | -74.43340 | 34995 ft | 492 kts | 21° |
| 2026-04-25 15:32 | 38.40987 | -74.39337 | 35002 ft | 491 kts | 21° |
| 2026-04-25 15:32 | 38.47047 | -74.35331 | 35014 ft | 490 kts | 21° |
| 2026-04-25 15:33 | 38.56093 | -74.29339 | 35012 ft | 488 kts | 20° |
| 2026-04-25 15:33 | 38.62133 | -74.25327 | 35028 ft | 490 kts | 21° |
| 2026-04-25 15:34 | 38.68193 | -74.21295 | 35027 ft | 491 kts | 21° |
| 2026-04-25 15:34 | 38.72201 | -74.18623 | 35023 ft | 489 kts | 21° |
| 2026-04-25 15:35 | 38.83148 | -74.11309 | 35020 ft | 488 kts | 20° |
| 2026-04-25 15:36 | 38.92174 | -74.05262 | 35028 ft | 489 kts | 20° |
| 2026-04-25 15:36 | 38.98226 | -74.01196 | 35046 ft | 492 kts | 20° |
| 2026-04-25 15:37 | 39.04006 | -73.96401 | 35048 ft | 495 kts | 28° |
| 2026-04-25 15:37 | 39.09640 | -73.91341 | 35054 ft | 494 kts | 28° |
| 2026-04-25 15:38 | 39.15269 | -73.86263 | 35059 ft | 494 kts | 28° |
| 2026-04-25 15:38 | 39.20902 | -73.81178 | 35064 ft | 494 kts | 28° |
| 2026-04-25 15:39 | 39.26526 | -73.76088 | 35068 ft | 493 kts | 28° |
| 2026-04-25 15:39 | 39.32148 | -73.70991 | 35091 ft | 493 kts | 28° |
| 2026-04-25 15:40 | 39.35867 | -73.67614 | 35072 ft | 493 kts | 28° |
| 2026-04-25 15:40 | 39.43348 | -73.60805 | 35081 ft | 492 kts | 28° |
| 2026-04-25 15:41 | 39.48938 | -73.55708 | 35090 ft | 492 kts | 28° |
| 2026-04-25 15:41 | 39.54544 | -73.50584 | 35089 ft | 494 kts | 28° |
| 2026-04-25 15:42 | 39.60157 | -73.45442 | 35095 ft | 494 kts | 28° |
| 2026-04-25 15:42 | 39.65766 | -73.40296 | 35096 ft | 493 kts | 28° |
| 2026-04-25 15:43 | 39.71363 | -73.35149 | 35101 ft | 493 kts | 28° |
| 2026-04-25 15:43 | 39.76947 | -73.30003 | 35106 ft | 491 kts | 28° |
| 2026-04-25 15:44 | 39.82148 | -73.24164 | 35119 ft | 504 kts | 44° |
| 2026-04-25 15:44 | 39.86342 | -73.16799 | 35110 ft | 510 kts | 47° |
| 2026-04-25 15:45 | 39.90485 | -73.09302 | 35106 ft | 510 kts | 47° |
| 2026-04-25 15:45 | 39.93255 | -73.04305 | 35108 ft | 507 kts | 47° |
| 2026-04-25 15:46 | 39.98739 | -72.94377 | 35121 ft | 507 kts | 47° |
| 2026-04-25 15:46 | 40.02154 | -72.88175 | 35114 ft | 506 kts | 47° |
| 2026-04-25 15:47 | 40.06248 | -72.80730 | 35129 ft | 506 kts | 47° |
| 2026-04-25 15:47 | 40.10343 | -72.73258 | 35118 ft | 505 kts | 47° |
| 2026-04-25 15:48 | 40.14423 | -72.65803 | 35123 ft | 505 kts | 47° |
| 2026-04-25 15:48 | 40.18504 | -72.58325 | 35114 ft | 505 kts | 47° |
| 2026-04-25 15:49 | 40.22576 | -72.50844 | 35153 ft | 504 kts | 47° |
| 2026-04-25 15:49 | 40.26636 | -72.43370 | 35139 ft | 503 kts | 47° |
| 2026-04-25 15:50 | 40.30689 | -72.35892 | 35143 ft | 504 kts | 47° |
| 2026-04-25 15:50 | 40.34754 | -72.28371 | 35148 ft | 505 kts | 47° |
| 2026-04-25 15:51 | 40.38137 | -72.22100 | 35141 ft | 506 kts | 47° |
| 2026-04-25 15:51 | 40.42849 | -72.13339 | 35147 ft | 505 kts | 47° |
| 2026-04-25 15:52 | 40.46892 | -72.05808 | 35140 ft | 504 kts | 47° |
| 2026-04-25 15:52 | 40.50650 | -71.97968 | 35151 ft | 516 kts | 59° |
| 2026-04-25 15:53 | 40.53486 | -71.89256 | 35154 ft | 519 kts | 59° |
| 2026-04-25 15:53 | 40.56302 | -71.80511 | 35145 ft | 518 kts | 59° |
| 2026-04-25 15:54 | 40.59093 | -71.71850 | 35145 ft | 517 kts | 59° |
| 2026-04-25 15:54 | 40.61887 | -71.63132 | 35148 ft | 517 kts | 59° |
| 2026-04-25 15:55 | 40.64677 | -71.54412 | 35169 ft | 517 kts | 59° |
| 2026-04-25 15:55 | 40.67448 | -71.45712 | 35156 ft | 515 kts | 59° |
| 2026-04-25 15:56 | 40.70216 | -71.37006 | 35155 ft | 514 kts | 59° |
| 2026-04-25 15:56 | 40.72970 | -71.28308 | 35155 ft | 514 kts | 59° |
| 2026-04-25 15:57 | 40.75721 | -71.19598 | 35160 ft | 515 kts | 59° |
| 2026-04-25 15:57 | 40.78475 | -71.10843 | 35156 ft | 516 kts | 59° |
| 2026-04-25 15:58 | 40.81208 | -71.02130 | 35156 ft | 517 kts | 60° |
| 2026-04-25 15:58 | 40.83606 | -70.93122 | 35149 ft | 520 kts | 63° |
| 2026-04-25 15:59 | 40.85968 | -70.84116 | 35143 ft | 518 kts | 62° |
| 2026-04-25 15:59 | 40.88302 | -70.75123 | 35142 ft | 516 kts | 62° |
| 2026-04-25 16:00 | 40.89863 | -70.69117 | 35140 ft | 516 kts | 62° |
| 2026-04-25 16:00 | 40.92953 | -70.57155 | 35143 ft | 517 kts | 63° |
| 2026-04-25 16:01 | 40.95272 | -70.48147 | 35154 ft | 517 kts | 62° |
| 2026-04-25 16:01 | 40.97579 | -70.39145 | 35154 ft | 516 kts | 62° |
| 2026-04-25 16:02 | 40.99866 | -70.30194 | 35156 ft | 517 kts | 62° |
| 2026-04-25 16:02 | 41.02165 | -70.21156 | 35153 ft | 517 kts | 62° |
| 2026-04-25 16:03 | 41.04455 | -70.12121 | 35149 ft | 516 kts | 62° |
| 2026-04-25 16:03 | 41.06729 | -70.03118 | 35149 ft | 515 kts | 62° |
| 2026-04-25 16:04 | 41.08996 | -69.94106 | 35149 ft | 515 kts | 62° |
| 2026-04-25 16:04 | 41.11258 | -69.85080 | 35168 ft | 516 kts | 62° |
| 2026-04-25 16:05 | 41.13495 | -69.76119 | 35148 ft | 515 kts | 62° |
| 2026-04-25 16:06 | 41.16861 | -69.62583 | 35147 ft | 516 kts | 62° |
| 2026-04-25 16:06 | 41.19101 | -69.53523 | 35148 ft | 517 kts | 62° |
| 2026-04-25 16:07 | 41.21337 | -69.44442 | 35144 ft | 516 kts | 62° |
| 2026-04-25 16:07 | 41.23560 | -69.35385 | 35141 ft | 515 kts | 62° |
| 2026-04-25 16:08 | 41.25773 | -69.26332 | 35143 ft | 515 kts | 62° |
| 2026-04-25 16:08 | 41.27979 | -69.17271 | 35146 ft | 515 kts | 62° |
| 2026-04-25 16:09 | 41.30170 | -69.08231 | 35137 ft | 512 kts | 62° |
| 2026-04-25 16:09 | 41.32348 | -68.99227 | 35137 ft | 511 kts | 62° |
| 2026-04-25 16:10 | 41.34519 | -68.90206 | 35136 ft | 513 kts | 62° |
| 2026-04-25 16:10 | 41.36690 | -68.81146 | 35134 ft | 513 kts | 62° |
| 2026-04-25 16:11 | 41.38588 | -68.71965 | 34358 ft | 524 kts | 66° |
| 2026-04-25 16:11 | 41.39585 | -68.67447 | 34514 ft | 499 kts | 59° |
| 2026-04-25 16:11 | 41.40793 | -68.63153 | 34668 ft | 494 kts | 57° |
| 2026-04-25 16:11 | 41.42060 | -68.58883 | 34794 ft | 498 kts | 58° |
| 2026-04-25 16:12 | 41.43165 | -68.54459 | 34928 ft | 506 kts | 63° |
| 2026-04-25 16:12 | 41.44104 | -68.49928 | 35082 ft | 510 kts | 63° |
| 2026-04-25 16:12 | 41.45104 | -68.45385 | 35123 ft | 509 kts | 61° |
| 2026-04-25 16:13 | 41.47337 | -68.36404 | 35127 ft | 513 kts | 62° |
| 2026-04-25 16:13 | 41.49401 | -68.27280 | 35128 ft | 512 kts | 62° |
| 2026-04-25 16:14 | 41.51546 | -68.18250 | 35190 ft | 511 kts | 61° |
| 2026-04-25 16:14 | 41.53635 | -68.09169 | 35121 ft | 510 kts | 61° |
| 2026-04-25 16:15 | 41.55736 | -68.00134 | 35116 ft | 510 kts | 61° |
| 2026-04-25 16:15 | 41.57810 | -67.91118 | 35119 ft | 512 kts | 61° |
| 2026-04-25 16:16 | 41.59899 | -67.82012 | 35119 ft | 513 kts | 61° |
| 2026-04-25 16:16 | 41.61995 | -67.72842 | 35134 ft | 512 kts | 62° |
| 2026-04-25 16:17 | 41.64069 | -67.63724 | 35096 ft | 512 kts | 62° |
| 2026-04-25 16:17 | 41.66123 | -67.54666 | 35095 ft | 512 kts | 62° |
| 2026-04-25 16:18 | 41.68182 | -67.45547 | 35105 ft | 513 kts | 62° |
| 2026-04-25 16:18 | 41.70243 | -67.36374 | 35100 ft | 514 kts | 62° |
| 2026-04-25 16:19 | 41.72293 | -67.27219 | 35107 ft | 514 kts | 63° |
| 2026-04-25 16:19 | 41.74341 | -67.18032 | 35096 ft | 516 kts | 63° |
| 2026-04-25 16:20 | 41.77399 | -67.04231 | 35090 ft | 514 kts | 63° |
| 2026-04-25 16:21 | 41.81097 | -66.91036 | 35093 ft | 507 kts | 57° |
| 2026-04-25 16:21 | 41.83763 | -66.82288 | 35087 ft | 508 kts | 58° |
| 2026-04-25 16:22 | 41.86447 | -66.73519 | 35084 ft | 508 kts | 58° |
| 2026-04-25 16:22 | 41.89113 | -66.64737 | 35085 ft | 508 kts | 58° |
| 2026-04-25 16:23 | 41.91784 | -66.55942 | 35106 ft | 509 kts | 59° |
| 2026-04-25 16:23 | 41.94438 | -66.47145 | 35070 ft | 507 kts | 59° |
| 2026-04-25 16:24 | 41.97080 | -66.38378 | 35072 ft | 505 kts | 59° |
| 2026-04-25 16:24 | 41.99701 | -66.29654 | 35076 ft | 510 kts | 60° |
| 2026-04-25 16:25 | 42.02376 | -66.20706 | 35067 ft | 513 kts | 60° |
| 2026-04-25 16:25 | 42.05008 | -66.11869 | 35061 ft | 511 kts | 60° |
| 2026-04-25 16:26 | 42.07649 | -66.02987 | 35056 ft | 510 kts | 61° |
| 2026-04-25 16:26 | 42.10272 | -65.94124 | 35050 ft | 509 kts | 61° |
| 2026-04-25 16:27 | 42.12891 | -65.85250 | 35049 ft | 509 kts | 61° |
| 2026-04-25 16:27 | 42.15499 | -65.76382 | 35042 ft | 510 kts | 62° |
| 2026-04-25 16:28 | 42.18108 | -65.67477 | 35043 ft | 511 kts | 62° |
| 2026-04-25 16:28 | 42.20714 | -65.58553 | 35020 ft | 512 kts | 62° |
| 2026-04-25 16:29 | 42.23301 | -65.49655 | 35020 ft | 507 kts | 62° |
| 2026-04-25 16:29 | 42.25862 | -65.40836 | 35019 ft | 508 kts | 62° |
| 2026-04-25 16:30 | 42.28443 | -65.31897 | 35017 ft | 507 kts | 63° |
| 2026-04-25 16:30 | 42.30979 | -65.23094 | 35028 ft | 506 kts | 63° |
| 2026-04-25 16:31 | 42.33517 | -65.14249 | 35015 ft | 504 kts | 63° |
| 2026-04-25 16:31 | 42.36048 | -65.05403 | 35012 ft | 504 kts | 63° |
| 2026-04-25 16:32 | 42.38574 | -64.96537 | 35012 ft | 505 kts | 63° |
| 2026-04-25 16:32 | 42.41091 | -64.87673 | 35012 ft | 505 kts | 63° |
| 2026-04-25 16:33 | 42.43607 | -64.78783 | 35008 ft | 505 kts | 63° |
| 2026-04-25 16:33 | 42.46112 | -64.69898 | 34994 ft | 505 kts | 64° |
| 2026-04-25 16:34 | 42.48620 | -64.60978 | 35001 ft | 507 kts | 64° |
| 2026-04-25 16:34 | 42.51128 | -64.52016 | 35001 ft | 509 kts | 64° |
| 2026-04-25 16:35 | 42.53211 | -64.44551 | 34994 ft | 509 kts | 64° |
| 2026-04-25 16:35 | 42.55705 | -64.35585 | 34995 ft | 508 kts | 64° |
| 2026-04-25 16:36 | 42.58190 | -64.26617 | 34982 ft | 507 kts | 64° |
| 2026-04-25 16:36 | 42.60661 | -64.17669 | 34983 ft | 506 kts | 65° |
| 2026-04-25 16:37 | 42.63123 | -64.08723 | 34977 ft | 506 kts | 65° |
| 2026-04-25 16:37 | 42.65585 | -63.99747 | 34974 ft | 508 kts | 65° |
| 2026-04-25 16:38 | 42.68028 | -63.90799 | 34977 ft | 509 kts | 65° |
| 2026-04-25 16:38 | 42.69256 | -63.86292 | 35089 ft | 509 kts | 66° |
| 2026-04-25 16:38 | 42.70478 | -63.81795 | 35391 ft | 506 kts | 66° |
| 2026-04-25 16:38 | 42.71697 | -63.77304 | 35554 ft | 506 kts | 66° |
| 2026-04-25 16:39 | 42.72932 | -63.72750 | 35719 ft | 506 kts | 66° |
| 2026-04-25 16:39 | 42.74131 | -63.68316 | 35884 ft | 506 kts | 66° |
| 2026-04-25 16:39 | 42.75343 | -63.63823 | 36105 ft | 505 kts | 66° |
| 2026-04-25 16:39 | 42.76549 | -63.59343 | 36356 ft | 504 kts | 66° |
| 2026-04-25 16:40 | 42.77753 | -63.54872 | 36497 ft | 504 kts | 66° |
| 2026-04-25 16:40 | 42.78958 | -63.50384 | 36650 ft | 505 kts | 66° |
| 2026-04-25 16:40 | 42.80159 | -63.45900 | 36888 ft | 503 kts | 66° |
| 2026-04-25 16:41 | 42.82562 | -63.36911 | 36936 ft | 506 kts | 66° |
| 2026-04-25 16:41 | 42.86129 | -63.23495 | 36929 ft | 502 kts | 66° |
| 2026-04-25 16:42 | 42.88498 | -63.14549 | 36927 ft | 502 kts | 66° |
| 2026-04-25 16:42 | 42.90859 | -63.05593 | 36932 ft | 501 kts | 66° |
| 2026-04-25 16:43 | 42.93209 | -62.96652 | 36920 ft | 500 kts | 66° |
| 2026-04-25 16:43 | 42.95549 | -62.87713 | 36919 ft | 500 kts | 66° |
| 2026-04-25 16:44 | 42.97882 | -62.78768 | 36907 ft | 500 kts | 66° |
| 2026-04-25 16:44 | 43.00210 | -62.69812 | 36914 ft | 500 kts | 66° |
| 2026-04-25 16:45 | 43.02527 | -62.60860 | 36912 ft | 501 kts | 67° |
| 2026-04-25 16:45 | 43.04845 | -62.51875 | 36905 ft | 501 kts | 67° |
| 2026-04-25 16:46 | 43.07144 | -62.42923 | 36898 ft | 501 kts | 67° |
| 2026-04-25 16:46 | 43.09074 | -62.35389 | 36893 ft | 501 kts | 67° |
| 2026-04-25 16:47 | 43.11741 | -62.24929 | 36886 ft | 501 kts | 67° |
| 2026-04-25 16:47 | 43.14027 | -62.15929 | 36886 ft | 500 kts | 67° |
| 2026-04-25 16:48 | 43.16306 | -62.06925 | 36870 ft | 500 kts | 67° |
| 2026-04-25 16:48 | 43.18577 | -61.97916 | 36876 ft | 502 kts | 67° |
| 2026-04-25 16:49 | 43.20850 | -61.88860 | 36871 ft | 502 kts | 68° |
| 2026-04-25 16:49 | 43.23119 | -61.79790 | 36865 ft | 503 kts | 68° |
| 2026-04-25 16:50 | 43.25379 | -61.70719 | 36866 ft | 503 kts | 68° |
| 2026-04-25 16:50 | 43.27635 | -61.61627 | 36860 ft | 503 kts | 68° |
| 2026-04-25 16:51 | 43.29883 | -61.52532 | 36834 ft | 503 kts | 68° |
| 2026-04-25 16:51 | 43.31747 | -61.44964 | 36844 ft | 502 kts | 68° |
| 2026-04-25 16:52 | 43.34353 | -61.34340 | 36841 ft | 502 kts | 68° |
| 2026-04-25 16:52 | 43.36575 | -61.25241 | 36836 ft | 502 kts | 68° |
| 2026-04-25 16:53 | 43.39879 | -61.11651 | 36827 ft | 503 kts | 68° |
| 2026-04-25 16:54 | 43.42086 | -61.02522 | 36819 ft | 503 kts | 68° |
| 2026-04-25 16:54 | 43.44286 | -60.93390 | 36813 ft | 503 kts | 68° |
| 2026-04-25 16:55 | 43.46478 | -60.84255 | 36809 ft | 503 kts | 68° |
| 2026-04-25 16:55 | 43.48662 | -60.75113 | 36812 ft | 503 kts | 68° |
| 2026-04-25 16:56 | 43.50843 | -60.65946 | 36797 ft | 503 kts | 69° |
| 2026-04-25 16:56 | 43.53021 | -60.56757 | 36797 ft | 504 kts | 69° |
| 2026-04-25 16:57 | 43.55173 | -60.47638 | 36800 ft | 504 kts | 69° |
| 2026-04-25 16:57 | 43.57336 | -60.38438 | 36792 ft | 504 kts | 69° |
| 2026-04-25 16:58 | 43.59494 | -60.29216 | 36778 ft | 505 kts | 69° |
| 2026-04-25 16:58 | 43.61642 | -60.20002 | 36776 ft | 504 kts | 69° |
| 2026-04-25 16:59 | 43.63780 | -60.10793 | 36774 ft | 504 kts | 69° |
| 2026-04-25 16:59 | 43.65911 | -60.01571 | 36769 ft | 504 kts | 69° |
| 2026-04-25 17:00 | 43.68039 | -59.92333 | 36758 ft | 504 kts | 69° |
| 2026-04-25 17:00 | 43.70158 | -59.83087 | 36760 ft | 505 kts | 69° |
| 2026-04-25 17:01 | 43.72260 | -59.73883 | 36751 ft | 505 kts | 69° |
| 2026-04-25 17:01 | 43.74362 | -59.64628 | 36752 ft | 504 kts | 70° |
| 2026-04-25 17:02 | 43.76458 | -59.55372 | 36739 ft | 504 kts | 70° |
| 2026-04-25 17:02 | 43.78547 | -59.46102 | 36730 ft | 504 kts | 70° |
| 2026-04-25 17:03 | 43.80631 | -59.36815 | 36728 ft | 505 kts | 70° |
| 2026-04-25 17:03 | 43.82705 | -59.27533 | 36722 ft | 505 kts | 70° |
| 2026-04-25 17:04 | 43.84776 | -59.18228 | 36725 ft | 505 kts | 70° |
| 2026-04-25 17:04 | 43.86838 | -59.08917 | 36711 ft | 505 kts | 70° |
| 2026-04-25 17:05 | 43.88891 | -58.99607 | 36710 ft | 505 kts | 70° |
| 2026-04-25 17:05 | 43.91945 | -58.85682 | 36706 ft | 505 kts | 70° |
| 2026-04-25 17:06 | 43.93982 | -58.76346 | 36706 ft | 505 kts | 70° |
| 2026-04-25 17:06 | 43.96009 | -58.67016 | 36686 ft | 505 kts | 70° |
| 2026-04-25 17:07 | 43.98029 | -58.57667 | 36682 ft | 505 kts | 70° |
| 2026-04-25 17:07 | 44.00043 | -58.48323 | 36702 ft | 507 kts | 70° |
| 2026-04-25 17:08 | 44.02050 | -58.38949 | 36690 ft | 511 kts | 71° |
| 2026-04-25 17:08 | 44.04075 | -58.29459 | 36677 ft | 512 kts | 70° |
| 2026-04-25 17:09 | 44.06093 | -58.19961 | 36677 ft | 515 kts | 71° |
| 2026-04-25 17:09 | 44.08118 | -58.10374 | 36670 ft | 517 kts | 71° |
| 2026-04-25 17:10 | 44.10140 | -58.00769 | 36677 ft | 517 kts | 71° |
| 2026-04-25 17:10 | 44.12150 | -57.91166 | 36653 ft | 516 kts | 71° |
| 2026-04-25 17:11 | 44.14151 | -57.81568 | 36653 ft | 516 kts | 71° |
| 2026-04-25 17:11 | 44.16148 | -57.71945 | 36644 ft | 517 kts | 71° |
| 2026-04-25 17:12 | 44.18132 | -57.62335 | 36643 ft | 517 kts | 71° |
| 2026-04-25 17:12 | 44.20097 | -57.52772 | 36644 ft | 516 kts | 71° |
| 2026-04-25 17:13 | 44.21414 | -57.46340 | 36631 ft | 517 kts | 71° |
| 2026-04-25 17:13 | 44.24031 | -57.33491 | 36632 ft | 518 kts | 71° |
| 2026-04-25 17:14 | 44.25990 | -57.23821 | 36626 ft | 518 kts | 71° |
| 2026-04-25 17:14 | 44.27940 | -57.14150 | 36627 ft | 518 kts | 72° |
| 2026-04-25 17:15 | 44.29862 | -57.04561 | 36600 ft | 507 kts | 71° |
| 2026-04-25 17:15 | 44.31745 | -56.95145 | 36591 ft | 507 kts | 71° |
| 2026-04-25 17:16 | 44.33631 | -56.85640 | 36591 ft | 508 kts | 71° |
| 2026-04-25 17:16 | 44.35512 | -56.76144 | 36593 ft | 509 kts | 72° |
| 2026-04-25 17:17 | 44.37390 | -56.66592 | 36595 ft | 510 kts | 72° |
| 2026-04-25 17:17 | 44.39260 | -56.57050 | 36579 ft | 509 kts | 72° |
| 2026-04-25 17:18 | 44.41118 | -56.47507 | 36580 ft | 508 kts | 72° |
| 2026-04-25 17:18 | 44.42970 | -56.37961 | 36576 ft | 508 kts | 72° |
| 2026-04-25 17:19 | 44.44815 | -56.28407 | 36563 ft | 509 kts | 72° |
| 2026-04-25 17:19 | 44.46648 | -56.18849 | 36573 ft | 509 kts | 72° |
| 2026-04-25 17:20 | 44.48480 | -56.09267 | 36560 ft | 510 kts | 73° |
| 2026-04-25 17:20 | 44.49741 | -55.99476 | 36551 ft | 512 kts | 79° |
| 2026-04-25 17:21 | 44.50833 | -55.89617 | 36555 ft | 512 kts | 78° |
| 2026-04-25 17:21 | 44.51913 | -55.79761 | 36541 ft | 512 kts | 78° |
| 2026-04-25 17:22 | 44.52626 | -55.73221 | 36543 ft | 512 kts | 79° |
| 2026-04-25 17:22 | 44.54047 | -55.60078 | 36527 ft | 513 kts | 79° |
| 2026-04-25 17:23 | 44.55108 | -55.50168 | 36510 ft | 513 kts | 78° |
| 2026-04-25 17:23 | 44.56158 | -55.40260 | 36504 ft | 513 kts | 78° |
| 2026-04-25 17:24 | 44.57202 | -55.30348 | 36505 ft | 514 kts | 78° |
| 2026-04-25 17:24 | 44.58062 | -55.22104 | 36501 ft | 513 kts | 78° |
| 2026-04-25 17:25 | 44.59258 | -55.10571 | 36511 ft | 514 kts | 79° |
| 2026-04-25 17:25 | 44.60279 | -55.00607 | 36493 ft | 516 kts | 80° |
| 2026-04-25 17:26 | 44.61128 | -54.92256 | 36499 ft | 515 kts | 79° |
| 2026-04-25 17:26 | 44.62125 | -54.82363 | 36489 ft | 516 kts | 79° |
| 2026-04-25 17:27 | 44.63128 | -54.72344 | 36484 ft | 521 kts | 80° |
| 2026-04-25 17:27 | 44.63963 | -54.63896 | 36476 ft | 521 kts | 79° |
| 2026-04-25 17:28 | 44.65116 | -54.52180 | 36468 ft | 520 kts | 79° |
| 2026-04-25 17:28 | 44.66092 | -54.42143 | 36458 ft | 519 kts | 80° |
| 2026-04-25 17:29 | 44.67058 | -54.32108 | 36454 ft | 518 kts | 81° |
| 2026-04-25 17:29 | 44.68016 | -54.22078 | 36446 ft | 518 kts | 80° |
| 2026-04-25 17:30 | 44.68962 | -54.12056 | 36453 ft | 516 kts | 80° |
| 2026-04-25 17:30 | 44.69646 | -54.04766 | 36451 ft | 515 kts | 80° |
| 2026-04-25 17:31 | 44.70577 | -53.94750 | 36444 ft | 519 kts | 81° |
| 2026-04-25 17:31 | 44.71497 | -53.84750 | 36429 ft | 520 kts | 81° |
| 2026-04-25 17:32 | 44.72415 | -53.74692 | 36431 ft | 519 kts | 81° |
| 2026-04-25 17:32 | 44.73321 | -53.64636 | 36412 ft | 519 kts | 81° |
| 2026-04-25 17:33 | 44.74221 | -53.54581 | 36415 ft | 516 kts | 81° |
| 2026-04-25 17:33 | 44.75106 | -53.44562 | 36410 ft | 518 kts | 82° |
| 2026-04-25 17:34 | 44.75989 | -53.34481 | 36410 ft | 520 kts | 82° |
| 2026-04-25 17:34 | 44.76863 | -53.24378 | 36403 ft | 520 kts | 82° |
| 2026-04-25 17:35 | 44.77729 | -53.14286 | 36402 ft | 519 kts | 81° |
| 2026-04-25 17:35 | 44.78585 | -53.04167 | 36389 ft | 519 kts | 81° |
| 2026-04-25 17:36 | 44.79434 | -52.94071 | 36390 ft | 520 kts | 82° |
| 2026-04-25 17:36 | 44.80272 | -52.83963 | 36382 ft | 520 kts | 82° |
| 2026-04-25 17:37 | 44.81103 | -52.73849 | 36384 ft | 519 kts | 82° |
| 2026-04-25 17:37 | 44.81919 | -52.63793 | 36374 ft | 519 kts | 82° |
| 2026-04-25 17:38 | 44.82599 | -52.55333 | 36377 ft | 518 kts | 82° |
| 2026-04-25 17:38 | 44.83529 | -52.43615 | 36369 ft | 518 kts | 82° |
| 2026-04-25 17:39 | 44.84324 | -52.33489 | 36369 ft | 521 kts | 82° |
| 2026-04-25 17:39 | 44.85113 | -52.23321 | 36355 ft | 521 kts | 82° |
| 2026-04-25 17:40 | 44.85889 | -52.13176 | 36362 ft | 520 kts | 82° |
| 2026-04-25 17:40 | 44.86662 | -52.03004 | 36357 ft | 522 kts | 82° |
| 2026-04-25 17:41 | 44.87421 | -51.92827 | 36349 ft | 522 kts | 82° |
| 2026-04-25 17:41 | 44.88172 | -51.82700 | 36348 ft | 523 kts | 83° |
| 2026-04-25 17:42 | 44.88913 | -51.72490 | 36342 ft | 524 kts | 83° |
| 2026-04-25 17:42 | 44.89641 | -51.62270 | 36340 ft | 524 kts | 83° |
| 2026-04-25 17:43 | 44.90365 | -51.52044 | 36326 ft | 523 kts | 83° |
| 2026-04-25 17:43 | 44.91076 | -51.41824 | 36327 ft | 524 kts | 83° |
| 2026-04-25 17:44 | 44.91781 | -51.31583 | 36327 ft | 524 kts | 84° |
| 2026-04-25 17:44 | 44.92477 | -51.21321 | 36327 ft | 526 kts | 84° |
| 2026-04-25 17:45 | 44.93050 | -51.12777 | 36315 ft | 525 kts | 84° |
| 2026-04-25 17:45 | 44.93842 | -51.00790 | 36316 ft | 524 kts | 84° |
| 2026-04-25 17:46 | 44.94504 | -50.90623 | 36308 ft | 523 kts | 84° |
| 2026-04-25 17:46 | 44.95161 | -50.80390 | 36309 ft | 524 kts | 84° |
| 2026-04-25 17:47 | 44.95811 | -50.70126 | 36301 ft | 527 kts | 84° |
| 2026-04-25 17:47 | 44.96455 | -50.59815 | 36308 ft | 528 kts | 85° |
| 2026-04-25 17:48 | 44.97403 | -50.44332 | 36310 ft | 526 kts | 85° |
| 2026-04-25 17:49 | 44.98022 | -50.34033 | 36306 ft | 526 kts | 85° |
| 2026-04-25 17:49 | 44.98633 | -50.23725 | 36306 ft | 526 kts | 85° |
| 2026-04-25 17:50 | 44.99236 | -50.13382 | 36297 ft | 529 kts | 85° |
| 2026-04-25 17:50 | 44.99837 | -50.03018 | 36300 ft | 529 kts | 83° |
| 2026-04-25 17:50 | 45.00547 | -49.97934 | 36321 ft | 529 kts | 71° |
| 2026-04-25 17:51 | 45.01750 | -49.93018 | 36277 ft | 529 kts | 70° |
| 2026-04-25 17:51 | 45.04225 | -49.83210 | 36297 ft | 530 kts | 70° |
| 2026-04-25 17:52 | 45.06672 | -49.73383 | 36300 ft | 530 kts | 70° |
| 2026-04-25 17:52 | 45.09120 | -49.63553 | 36280 ft | 530 kts | 70° |
| 2026-04-25 17:53 | 45.11545 | -49.53751 | 36281 ft | 530 kts | 71° |
| 2026-04-25 17:53 | 45.13978 | -49.43887 | 36285 ft | 532 kts | 71° |
| 2026-04-25 17:54 | 45.16408 | -49.33987 | 36279 ft | 532 kts | 71° |
| 2026-04-25 17:54 | 45.18827 | -49.24087 | 36293 ft | 531 kts | 71° |
| 2026-04-25 17:55 | 45.21242 | -49.14162 | 36283 ft | 532 kts | 71° |
| 2026-04-25 17:55 | 45.23647 | -49.04234 | 36286 ft | 533 kts | 71° |
| 2026-04-25 17:56 | 45.26043 | -48.94302 | 36299 ft | 533 kts | 72° |
| 2026-04-25 17:56 | 45.28436 | -48.84335 | 36280 ft | 532 kts | 72° |
| 2026-04-25 17:57 | 45.30820 | -48.74360 | 36284 ft | 533 kts | 72° |
| 2026-04-25 17:57 | 45.33191 | -48.64399 | 36294 ft | 533 kts | 72° |
| 2026-04-25 17:58 | 45.35553 | -48.54430 | 36297 ft | 532 kts | 72° |
| 2026-04-25 17:58 | 45.37912 | -48.44426 | 36296 ft | 533 kts | 73° |
| 2026-04-25 17:59 | 45.40264 | -48.34405 | 36295 ft | 535 kts | 73° |
| 2026-04-25 17:59 | 45.42598 | -48.24420 | 36310 ft | 535 kts | 72° |
| 2026-04-25 18:00 | 45.44936 | -48.14370 | 36310 ft | 534 kts | 73° |
| 2026-04-25 18:00 | 45.47265 | -48.04313 | 36306 ft | 534 kts | 73° |
| 2026-04-25 18:01 | 45.49588 | -47.94234 | 36312 ft | 535 kts | 73° |
| 2026-04-25 18:01 | 45.51899 | -47.84159 | 36333 ft | 534 kts | 73° |
| 2026-04-25 18:02 | 45.54199 | -47.74085 | 36330 ft | 534 kts | 73° |
| 2026-04-25 18:02 | 45.56495 | -47.63986 | 36323 ft | 537 kts | 74° |
| 2026-04-25 18:03 | 45.58795 | -47.53819 | 36339 ft | 538 kts | 74° |
| 2026-04-25 18:03 | 45.61087 | -47.43637 | 36347 ft | 538 kts | 74° |
| 2026-04-25 18:04 | 45.63367 | -47.33466 | 36347 ft | 537 kts | 74° |
| 2026-04-25 18:04 | 45.65618 | -47.23367 | 36346 ft | 536 kts | 74° |
| 2026-04-25 18:05 | 45.67874 | -47.13205 | 36362 ft | 537 kts | 75° |
| 2026-04-25 18:05 | 45.70123 | -47.03021 | 36368 ft | 537 kts | 75° |
| 2026-04-25 18:06 | 45.72362 | -46.92841 | 36362 ft | 536 kts | 75° |
| 2026-04-25 18:06 | 45.74591 | -46.82648 | 36371 ft | 536 kts | 75° |
| 2026-04-25 18:07 | 45.76807 | -46.72467 | 36380 ft | 536 kts | 75° |
| 2026-04-25 18:07 | 45.79018 | -46.62260 | 36379 ft | 536 kts | 75° |
| 2026-04-25 18:08 | 45.81215 | -46.52071 | 36384 ft | 535 kts | 75° |
| 2026-04-25 18:08 | 45.83403 | -46.41871 | 36391 ft | 534 kts | 75° |
| 2026-04-25 18:09 | 45.85577 | -46.31684 | 36386 ft | 534 kts | 76° |
| 2026-04-25 18:09 | 45.87728 | -46.21557 | 36394 ft | 533 kts | 76° |
| 2026-04-25 18:10 | 45.89882 | -46.11363 | 36405 ft | 535 kts | 76° |
| 2026-04-25 18:10 | 45.92039 | -46.01110 | 36419 ft | 537 kts | 76° |
| 2026-04-25 18:11 | 45.94189 | -45.90838 | 36432 ft | 537 kts | 76° |
| 2026-04-25 18:11 | 45.96324 | -45.80581 | 36430 ft | 535 kts | 76° |
| 2026-04-25 18:12 | 45.98444 | -45.70343 | 36432 ft | 534 kts | 76° |
| 2026-04-25 18:12 | 46.00555 | -45.60100 | 36433 ft | 534 kts | 76° |
| 2026-04-25 18:13 | 46.02644 | -45.49910 | 36435 ft | 535 kts | 76° |
| 2026-04-25 18:13 | 46.04745 | -45.39611 | 36439 ft | 537 kts | 77° |
| 2026-04-25 18:14 | 46.07882 | -45.24132 | 36461 ft | 537 kts | 77° |
| 2026-04-25 18:14 | 46.09612 | -45.15548 | 36467 ft | 536 kts | 77° |
| 2026-04-25 18:15 | 46.11676 | -45.05248 | 36461 ft | 535 kts | 77° |
| 2026-04-25 18:15 | 46.13735 | -44.94927 | 36468 ft | 533 kts | 77° |
| 2026-04-25 18:16 | 46.15779 | -44.84619 | 36476 ft | 536 kts | 77° |
| 2026-04-25 18:17 | 46.18843 | -44.69076 | 36475 ft | 537 kts | 77° |
| 2026-04-25 18:17 | 46.20861 | -44.58766 | 36501 ft | 537 kts | 78° |
| 2026-04-25 18:18 | 46.22881 | -44.48389 | 36497 ft | 536 kts | 78° |
| 2026-04-25 18:18 | 46.24891 | -44.38009 | 36501 ft | 536 kts | 78° |
| 2026-04-25 18:19 | 46.26892 | -44.27623 | 36501 ft | 536 kts | 78° |
| 2026-04-25 18:19 | 46.28883 | -44.17234 | 36506 ft | 535 kts | 78° |
| 2026-04-25 18:20 | 46.30857 | -44.06873 | 36502 ft | 534 kts | 78° |
| 2026-04-25 18:20 | 46.32823 | -43.96496 | 36513 ft | 536 kts | 78° |
| 2026-04-25 18:21 | 46.34777 | -43.86123 | 36520 ft | 538 kts | 78° |
| 2026-04-25 18:21 | 46.36735 | -43.75680 | 36513 ft | 537 kts | 79° |
| 2026-04-25 18:22 | 46.38677 | -43.65259 | 36517 ft | 534 kts | 79° |
| 2026-04-25 18:22 | 46.40604 | -43.54860 | 36518 ft | 535 kts | 79° |
| 2026-04-25 18:23 | 46.42524 | -43.44446 | 36520 ft | 535 kts | 79° |
| 2026-04-25 18:23 | 46.44435 | -43.34016 | 36520 ft | 535 kts | 79° |
| 2026-04-25 18:24 | 46.46339 | -43.23561 | 36529 ft | 537 kts | 79° |
| 2026-04-25 18:24 | 46.48240 | -43.13072 | 36533 ft | 537 kts | 79° |
| 2026-04-25 18:25 | 46.50128 | -43.02594 | 36530 ft | 537 kts | 80° |
| 2026-04-25 18:25 | 46.52011 | -42.92074 | 36543 ft | 539 kts | 80° |
| 2026-04-25 18:26 | 46.53873 | -42.81624 | 36542 ft | 538 kts | 80° |
| 2026-04-25 18:26 | 46.55739 | -42.71080 | 36551 ft | 538 kts | 80° |
| 2026-04-25 18:27 | 46.57595 | -42.60536 | 36548 ft | 538 kts | 80° |
| 2026-04-25 18:27 | 46.59438 | -42.50002 | 36537 ft | 537 kts | 81° |
| 2026-04-25 18:28 | 46.61265 | -42.39498 | 36528 ft | 535 kts | 81° |
| 2026-04-25 18:28 | 46.63082 | -42.28981 | 36544 ft | 536 kts | 81° |
| 2026-04-25 18:29 | 46.65783 | -42.13243 | 36529 ft | 537 kts | 81° |
| 2026-04-25 18:30 | 46.69387 | -41.92014 | 36552 ft | 539 kts | 81° |
| 2026-04-25 18:30 | 46.71171 | -41.81414 | 36556 ft | 539 kts | 81° |
| 2026-04-25 18:31 | 46.72947 | -41.70786 | 36545 ft | 538 kts | 81° |
| 2026-04-25 18:31 | 46.74697 | -41.60258 | 36560 ft | 537 kts | 81° |
| 2026-04-25 18:32 | 46.76445 | -41.49671 | 36557 ft | 537 kts | 82° |
| 2026-04-25 18:32 | 46.78185 | -41.39071 | 36559 ft | 537 kts | 82° |
| 2026-04-25 18:33 | 46.79913 | -41.28473 | 36554 ft | 536 kts | 82° |
| 2026-04-25 18:33 | 46.81627 | -41.17901 | 36557 ft | 535 kts | 82° |
| 2026-04-25 18:34 | 46.83331 | -41.07312 | 36570 ft | 537 kts | 82° |
| 2026-04-25 18:34 | 46.85035 | -40.96656 | 36577 ft | 540 kts | 82° |
| 2026-04-25 18:35 | 46.86735 | -40.85977 | 36568 ft | 538 kts | 82° |
| 2026-04-25 18:35 | 46.88417 | -40.75319 | 36567 ft | 537 kts | 82° |
| 2026-04-25 18:36 | 46.90089 | -40.64668 | 36574 ft | 537 kts | 82° |
| 2026-04-25 18:36 | 46.91748 | -40.54022 | 36579 ft | 538 kts | 82° |
| 2026-04-25 18:37 | 46.93403 | -40.43335 | 36579 ft | 539 kts | 83° |
| 2026-04-25 18:37 | 46.95050 | -40.32629 | 36592 ft | 539 kts | 83° |
| 2026-04-25 18:38 | 46.96689 | -40.21905 | 36592 ft | 539 kts | 83° |
| 2026-04-25 18:38 | 46.98314 | -40.11203 | 36587 ft | 538 kts | 83° |
| 2026-04-25 18:39 | 46.99888 | -40.00530 | 36611 ft | 536 kts | 88° |
| 2026-04-25 18:39 | 47.00450 | -39.89706 | 36598 ft | 532 kts | 92° |
| 2026-04-25 18:40 | 47.00901 | -39.78891 | 36612 ft | 532 kts | 92° |
| 2026-04-25 18:40 | 47.01352 | -39.68059 | 36618 ft | 532 kts | 93° |
| 2026-04-25 18:41 | 47.01787 | -39.57236 | 36620 ft | 532 kts | 93° |
| 2026-04-25 18:41 | 47.02215 | -39.46404 | 36610 ft | 532 kts | 93° |
| 2026-04-25 18:42 | 47.02491 | -39.39237 | 36574 ft | 533 kts | 93° |
| 2026-04-25 18:42 | 47.03039 | -39.24673 | 36614 ft | 536 kts | 93° |
| 2026-04-25 18:43 | 47.03436 | -39.13854 | 36616 ft | 535 kts | 93° |
| 2026-04-25 18:43 | 47.03822 | -39.02968 | 36604 ft | 534 kts | 93° |
| 2026-04-25 18:44 | 47.04200 | -38.92080 | 36615 ft | 536 kts | 93° |
| 2026-04-25 18:44 | 47.04569 | -38.81150 | 36624 ft | 536 kts | 94° |
| 2026-04-25 18:45 | 47.04927 | -38.70227 | 36624 ft | 536 kts | 94° |
| 2026-04-25 18:45 | 47.05274 | -38.59287 | 36624 ft | 538 kts | 94° |
| 2026-04-25 18:46 | 47.05612 | -38.48311 | 36626 ft | 539 kts | 93° |
| 2026-04-25 18:46 | 47.05942 | -38.37312 | 36640 ft | 540 kts | 93° |
| 2026-04-25 18:47 | 47.06259 | -38.26315 | 36638 ft | 539 kts | 93° |
| 2026-04-25 18:47 | 47.06567 | -38.15332 | 36638 ft | 539 kts | 94° |
| 2026-04-25 18:48 | 47.06861 | -38.04412 | 36612 ft | 538 kts | 94° |
| 2026-04-25 18:48 | 47.07147 | -37.93471 | 36617 ft | 536 kts | 93° |
| 2026-04-25 18:49 | 47.07420 | -37.82548 | 36651 ft | 535 kts | 94° |
| 2026-04-25 18:49 | 47.07683 | -37.71658 | 36641 ft | 534 kts | 94° |
| 2026-04-25 18:50 | 47.07935 | -37.60760 | 36648 ft | 535 kts | 94° |
| 2026-04-25 18:50 | 47.08179 | -37.49835 | 36641 ft | 535 kts | 94° |
| 2026-04-25 18:51 | 47.08335 | -37.42553 | 36653 ft | 534 kts | 94° |
| 2026-04-25 18:51 | 47.08632 | -37.28037 | 36661 ft | 534 kts | 94° |
| 2026-04-25 18:52 | 47.08844 | -37.17130 | 36653 ft | 535 kts | 94° |
| 2026-04-25 18:52 | 47.09045 | -37.06216 | 36662 ft | 535 kts | 94° |
| 2026-04-25 18:53 | 47.09234 | -36.95369 | 36667 ft | 535 kts | 94° |
| 2026-04-25 18:53 | 47.09415 | -36.84436 | 36669 ft | 536 kts | 94° |
| 2026-04-25 18:54 | 47.09666 | -36.68051 | 36679 ft | 535 kts | 94° |
| 2026-04-25 18:55 | 47.09821 | -36.57116 | 36687 ft | 535 kts | 94° |
| 2026-04-25 18:55 | 47.09966 | -36.46241 | 36686 ft | 529 kts | 94° |
| 2026-04-25 18:56 | 47.10096 | -36.35455 | 36701 ft | 529 kts | 94° |
| 2026-04-25 18:56 | 47.10219 | -36.24647 | 36696 ft | 530 kts | 94° |
| 2026-04-25 18:57 | 47.10332 | -36.13833 | 36720 ft | 530 kts | 94° |
| 2026-04-25 18:57 | 47.10434 | -36.03007 | 36719 ft | 531 kts | 94° |
| 2026-04-25 18:58 | 47.10526 | -35.92276 | 36726 ft | 527 kts | 94° |
| 2026-04-25 18:58 | 47.10643 | -35.76158 | 36734 ft | 526 kts | 94° |
| 2026-04-25 18:59 | 47.10766 | -35.54602 | 36751 ft | 529 kts | 94° |
| 2026-04-25 19:00 | 47.10831 | -35.38435 | 36762 ft | 528 kts | 94° |
| 2026-04-25 19:01 | 47.10874 | -35.22269 | 36766 ft | 528 kts | 94° |
| 2026-04-25 19:01 | 47.10888 | -35.13317 | 36763 ft | 528 kts | 94° |
| 2026-04-25 19:02 | 47.10894 | -34.97132 | 36772 ft | 530 kts | 94° |
| 2026-04-25 19:03 | 47.10883 | -34.82720 | 36782 ft | 530 kts | 94° |
| 2026-04-25 19:03 | 47.10856 | -34.70071 | 36790 ft | 530 kts | 94° |
| 2026-04-25 19:04 | 47.10803 | -34.53839 | 36800 ft | 529 kts | 95° |
| 2026-04-25 19:05 | 47.10696 | -34.32332 | 36819 ft | 528 kts | 94° |
| 2026-04-25 19:06 | 47.10627 | -34.21528 | 36837 ft | 530 kts | 94° |
| 2026-04-25 19:06 | 47.10505 | -34.05248 | 36840 ft | 530 kts | 95° |
| 2026-04-25 19:07 | 47.10360 | -33.89034 | 36847 ft | 530 kts | 94° |
| 2026-04-25 19:08 | 47.10192 | -33.72882 | 36854 ft | 530 kts | 95° |
| 2026-04-25 19:09 | 47.09955 | -33.53007 | 36856 ft | 531 kts | 95° |
| 2026-04-25 19:10 | 47.09712 | -33.35070 | 36887 ft | 528 kts | 95° |
| 2026-04-25 19:10 | 47.09552 | -33.24308 | 36888 ft | 527 kts | 95° |
| 2026-04-25 19:11 | 47.09383 | -33.13545 | 36888 ft | 527 kts | 95° |
| 2026-04-25 19:11 | 47.09202 | -33.02775 | 36886 ft | 527 kts | 95° |
| 2026-04-25 19:12 | 47.09014 | -32.92061 | 36905 ft | 524 kts | 95° |
| 2026-04-25 19:12 | 47.08815 | -32.81371 | 36911 ft | 524 kts | 95° |
| 2026-04-25 19:13 | 47.08606 | -32.70657 | 36919 ft | 525 kts | 95° |
| 2026-04-25 19:13 | 47.08386 | -32.59928 | 36929 ft | 526 kts | 95° |
| 2026-04-25 19:14 | 47.08158 | -32.49247 | 36923 ft | 526 kts | 95° |
| 2026-04-25 19:14 | 47.07920 | -32.38564 | 36932 ft | 522 kts | 95° |
| 2026-04-25 19:15 | 47.07672 | -32.27909 | 36928 ft | 522 kts | 95° |
| 2026-04-25 19:15 | 47.07415 | -32.17243 | 36953 ft | 523 kts | 95° |
| 2026-04-25 19:16 | 47.07148 | -32.06626 | 36955 ft | 525 kts | 95° |
| 2026-04-25 19:16 | 47.06871 | -31.95929 | 36962 ft | 523 kts | 95° |
| 2026-04-25 19:17 | 47.06583 | -31.85290 | 36961 ft | 521 kts | 95° |
| 2026-04-25 19:17 | 47.06287 | -31.74668 | 36971 ft | 521 kts | 95° |
| 2026-04-25 19:18 | 47.05981 | -31.64045 | 36973 ft | 521 kts | 95° |
| 2026-04-25 19:18 | 47.05665 | -31.53419 | 36982 ft | 522 kts | 95° |
| 2026-04-25 19:19 | 47.05342 | -31.42876 | 36987 ft | 520 kts | 95° |
| 2026-04-25 19:19 | 47.05006 | -31.32262 | 36995 ft | 521 kts | 96° |
| 2026-04-25 19:20 | 47.04662 | -31.21666 | 37006 ft | 521 kts | 96° |
| 2026-04-25 19:20 | 47.04307 | -31.11058 | 37004 ft | 521 kts | 96° |
| 2026-04-25 19:21 | 47.03942 | -31.00435 | 37016 ft | 522 kts | 96° |
| 2026-04-25 19:21 | 47.03376 | -30.84517 | 37009 ft | 520 kts | 96° |
| 2026-04-25 19:22 | 47.02988 | -30.73941 | 37029 ft | 519 kts | 96° |
| 2026-04-25 19:23 | 47.02390 | -30.58139 | 37032 ft | 521 kts | 96° |
| 2026-04-25 19:23 | 47.02321 | -30.56353 | 37036 ft | 521 kts | 96° |
| 2026-04-25 19:24 | 47.02008 | -30.48325 | 37042 ft | 522 kts | 96° |
| 2026-04-25 19:25 | 47.01154 | -30.27151 | 37043 ft | 519 kts | 96° |
| 2026-04-25 19:25 | 47.00713 | -30.16579 | 37045 ft | 518 kts | 96° |
| 2026-04-25 19:26 | 47.00262 | -30.06030 | 37041 ft | 519 kts | 96° |
| 2026-04-25 19:26 | 47.00187 | -29.95507 | 37059 ft | 523 kts | 88° |
| 2026-04-25 19:27 | 47.00583 | -29.86572 | 37066 ft | 525 kts | 88° |
| 2026-04-25 19:27 | 47.01096 | -29.74182 | 37072 ft | 524 kts | 89° |
| 2026-04-25 19:28 | 47.01536 | -29.63526 | 37072 ft | 524 kts | 89° |
| 2026-04-25 19:28 | 47.01960 | -29.52870 | 37070 ft | 524 kts | 89° |
| 2026-04-25 19:29 | 47.02377 | -29.42222 | 37078 ft | 524 kts | 89° |
| 2026-04-25 19:29 | 47.02783 | -29.31548 | 37079 ft | 524 kts | 89° |
| 2026-04-25 19:30 | 47.03179 | -29.20883 | 37080 ft | 524 kts | 89° |
| 2026-04-25 19:30 | 47.03566 | -29.10209 | 37079 ft | 525 kts | 89° |
| 2026-04-25 19:31 | 47.03944 | -28.99512 | 37085 ft | 525 kts | 89° |
| 2026-04-25 19:31 | 47.04309 | -28.88882 | 37092 ft | 525 kts | 89° |
| 2026-04-25 19:32 | 47.04668 | -28.78143 | 37089 ft | 524 kts | 89° |
| 2026-04-25 19:32 | 47.04899 | -28.71075 | 37094 ft | 523 kts | 89° |
| 2026-04-25 19:33 | 47.05348 | -28.56911 | 37087 ft | 522 kts | 89° |
| 2026-04-25 19:33 | 47.05675 | -28.46254 | 37090 ft | 523 kts | 89° |
| 2026-04-25 19:34 | 47.05992 | -28.35581 | 37098 ft | 525 kts | 89° |
| 2026-04-25 19:34 | 47.06300 | -28.24874 | 37098 ft | 526 kts | 89° |
| 2026-04-25 19:35 | 47.06596 | -28.14235 | 37104 ft | 526 kts | 88° |
| 2026-04-25 19:35 | 47.06885 | -28.03507 | 37107 ft | 527 kts | 88° |
| 2026-04-25 19:36 | 47.07166 | -27.92701 | 37111 ft | 526 kts | 89° |
| 2026-04-25 19:36 | 47.07432 | -27.82060 | 37108 ft | 525 kts | 89° |
| 2026-04-25 19:37 | 47.07689 | -27.71367 | 37105 ft | 525 kts | 88° |
| 2026-04-25 19:37 | 47.07939 | -27.60640 | 37112 ft | 526 kts | 88° |
| 2026-04-25 19:38 | 47.08177 | -27.49903 | 37113 ft | 527 kts | 89° |
| 2026-04-25 19:38 | 47.08406 | -27.39147 | 37119 ft | 528 kts | 89° |
| 2026-04-25 19:39 | 47.08624 | -27.28405 | 37125 ft | 526 kts | 88° |
| 2026-04-25 19:39 | 47.08833 | -27.17699 | 37117 ft | 523 kts | 88° |
| 2026-04-25 19:40 | 47.09030 | -27.07040 | 37111 ft | 523 kts | 88° |
| 2026-04-25 19:40 | 47.09217 | -26.96345 | 37113 ft | 525 kts | 89° |
| 2026-04-25 19:41 | 47.09395 | -26.85689 | 37121 ft | 526 kts | 88° |
| 2026-04-25 19:41 | 47.09508 | -26.78515 | 37122 ft | 524 kts | 88° |
| 2026-04-25 19:42 | 47.09720 | -26.64314 | 37118 ft | 522 kts | 89° |
| 2026-04-25 19:42 | 47.09868 | -26.53648 | 37116 ft | 522 kts | 89° |
| 2026-04-25 19:43 | 47.10006 | -26.42997 | 37118 ft | 522 kts | 89° |
| 2026-04-25 19:43 | 47.10133 | -26.32374 | 37119 ft | 519 kts | 89° |
| 2026-04-25 19:44 | 47.10250 | -26.21776 | 37125 ft | 519 kts | 89° |
| 2026-04-25 19:44 | 47.10357 | -26.11249 | 37123 ft | 519 kts | 89° |
| 2026-04-25 19:45 | 47.10454 | -26.00653 | 37124 ft | 519 kts | 89° |
| 2026-04-25 19:45 | 47.10542 | -25.90041 | 37123 ft | 518 kts | 89° |
| 2026-04-25 19:46 | 47.10621 | -25.79471 | 37122 ft | 518 kts | 89° |
| 2026-04-25 19:46 | 47.10689 | -25.68894 | 37121 ft | 518 kts | 89° |
| 2026-04-25 19:47 | 47.10747 | -25.58334 | 37120 ft | 517 kts | 89° |
| 2026-04-25 19:47 | 47.10796 | -25.47760 | 37128 ft | 518 kts | 89° |
| 2026-04-25 19:48 | 47.10835 | -25.37173 | 37127 ft | 518 kts | 89° |
| 2026-04-25 19:48 | 47.10864 | -25.26611 | 37117 ft | 518 kts | 89° |
| 2026-04-25 19:49 | 47.10879 | -25.19603 | 37119 ft | 518 kts | 89° |
| 2026-04-25 19:49 | 47.10894 | -25.05545 | 37120 ft | 518 kts | 89° |
| 2026-04-25 19:50 | 47.10891 | -24.89633 | 37126 ft | 520 kts | 89° |
| 2026-04-25 19:51 | 47.10876 | -24.79022 | 37129 ft | 521 kts | 89° |
| 2026-04-25 19:51 | 47.10852 | -24.68384 | 37131 ft | 520 kts | 90° |
| 2026-04-25 19:52 | 47.10817 | -24.57763 | 37132 ft | 521 kts | 90° |
| 2026-04-25 19:52 | 47.10774 | -24.47190 | 37128 ft | 522 kts | 90° |
| 2026-04-25 19:53 | 47.10730 | -24.38272 | 37130 ft | 522 kts | 90° |
| 2026-04-25 19:53 | 47.10667 | -24.27626 | 37115 ft | 521 kts | 90° |
| 2026-04-25 19:54 | 47.10596 | -24.16995 | 37113 ft | 521 kts | 90° |
| 2026-04-25 19:54 | 47.10513 | -24.06366 | 37124 ft | 520 kts | 90° |
| 2026-04-25 19:55 | 47.10422 | -23.95763 | 37117 ft | 519 kts | 90° |
| 2026-04-25 19:55 | 47.10322 | -23.85239 | 37114 ft | 518 kts | 90° |
| 2026-04-25 19:56 | 47.10211 | -23.74603 | 37108 ft | 518 kts | 90° |
| 2026-04-25 19:56 | 47.10091 | -23.64085 | 37120 ft | 519 kts | 90° |
| 2026-04-25 19:57 | 47.09961 | -23.53513 | 37124 ft | 518 kts | 90° |
| 2026-04-25 19:57 | 47.09822 | -23.42934 | 37120 ft | 518 kts | 90° |
| 2026-04-25 19:58 | 47.09672 | -23.32375 | 37107 ft | 517 kts | 90° |
| 2026-04-25 19:58 | 47.09513 | -23.21794 | 37120 ft | 520 kts | 90° |
| 2026-04-25 19:59 | 47.09343 | -23.11153 | 37116 ft | 522 kts | 90° |
| 2026-04-25 19:59 | 47.09164 | -23.00573 | 37118 ft | 521 kts | 90° |
| 2026-04-25 20:00 | 47.08975 | -22.89963 | 37113 ft | 520 kts | 91° |
| 2026-04-25 20:00 | 47.08776 | -22.79355 | 37110 ft | 519 kts | 91° |
| 2026-04-25 20:01 | 47.08459 | -22.63433 | 37112 ft | 521 kts | 91° |
| 2026-04-25 20:01 | 47.08235 | -22.52803 | 37110 ft | 522 kts | 91° |
| 2026-04-25 20:02 | 47.08000 | -22.42134 | 37112 ft | 522 kts | 91° |
| 2026-04-25 20:02 | 47.07756 | -22.31490 | 37114 ft | 522 kts | 91° |
| 2026-04-25 20:03 | 47.07503 | -22.20869 | 37093 ft | 520 kts | 91° |
| 2026-04-25 20:03 | 47.07241 | -22.10284 | 37089 ft | 520 kts | 91° |
| 2026-04-25 20:04 | 47.06968 | -21.99675 | 37088 ft | 521 kts | 91° |
| 2026-04-25 20:04 | 47.06687 | -21.89128 | 37092 ft | 521 kts | 91° |
| 2026-04-25 20:05 | 47.06394 | -21.78488 | 37097 ft | 523 kts | 91° |
| 2026-04-25 20:05 | 47.06090 | -21.67826 | 37095 ft | 522 kts | 91° |
| 2026-04-25 20:06 | 47.05778 | -21.57204 | 37091 ft | 521 kts | 92° |
| 2026-04-25 20:06 | 47.05457 | -21.46609 | 37082 ft | 520 kts | 92° |
| 2026-04-25 20:07 | 47.05126 | -21.36019 | 37079 ft | 520 kts | 92° |
| 2026-04-25 20:07 | 47.04783 | -21.25375 | 37078 ft | 524 kts | 92° |
| 2026-04-25 20:08 | 47.04429 | -21.14700 | 37080 ft | 524 kts | 92° |
| 2026-04-25 20:08 | 47.04066 | -21.04027 | 37081 ft | 524 kts | 92° |
| 2026-04-25 20:09 | 47.03692 | -20.93346 | 37083 ft | 523 kts | 92° |
| 2026-04-25 20:09 | 47.03312 | -20.82771 | 37082 ft | 522 kts | 92° |
| 2026-04-25 20:10 | 47.02921 | -20.72145 | 37074 ft | 522 kts | 92° |
| 2026-04-25 20:10 | 47.02520 | -20.61527 | 37073 ft | 521 kts | 92° |
| 2026-04-25 20:11 | 47.02109 | -20.50908 | 37080 ft | 521 kts | 93° |
| 2026-04-25 20:11 | 47.01690 | -20.40336 | 37077 ft | 519 kts | 93° |
| 2026-04-25 20:12 | 47.01261 | -20.29765 | 37078 ft | 520 kts | 93° |
| 2026-04-25 20:12 | 47.00896 | -20.20952 | 37077 ft | 521 kts | 93° |
| 2026-04-25 20:13 | 47.00371 | -20.08561 | 37080 ft | 522 kts | 93° |
| 2026-04-25 20:13 | 47.00031 | -19.98023 | 37098 ft | 518 kts | 88° |
| 2026-04-25 20:14 | 47.00270 | -19.87470 | 37078 ft | 519 kts | 88° |
| 2026-04-25 20:14 | 47.00481 | -19.76896 | 37082 ft | 519 kts | 88° |
| 2026-04-25 20:15 | 47.00684 | -19.66333 | 37080 ft | 519 kts | 88° |
| 2026-04-25 20:15 | 47.00881 | -19.55764 | 37080 ft | 517 kts | 89° |
| 2026-04-25 20:16 | 47.01062 | -19.45255 | 37080 ft | 516 kts | 89° |
| 2026-04-25 20:16 | 47.01238 | -19.34722 | 37086 ft | 517 kts | 89° |
| 2026-04-25 20:17 | 47.01400 | -19.24246 | 37085 ft | 518 kts | 89° |
| 2026-04-25 20:17 | 47.01558 | -19.13606 | 37079 ft | 519 kts | 89° |
| 2026-04-25 20:18 | 47.01702 | -19.03060 | 37083 ft | 517 kts | 90° |
| 2026-04-25 20:18 | 47.01838 | -18.92544 | 37080 ft | 516 kts | 90° |
| 2026-04-25 20:19 | 47.01963 | -18.82087 | 37085 ft | 517 kts | 90° |
| 2026-04-25 20:19 | 47.02080 | -18.71539 | 37089 ft | 518 kts | 90° |
| 2026-04-25 20:20 | 47.02186 | -18.60978 | 37099 ft | 518 kts | 90° |
| 2026-04-25 20:20 | 47.02284 | -18.50421 | 37101 ft | 518 kts | 90° |
| 2026-04-25 20:21 | 47.02371 | -18.39869 | 37106 ft | 518 kts | 90° |
| 2026-04-25 20:21 | 47.02449 | -18.29316 | 37102 ft | 517 kts | 91° |
| 2026-04-25 20:22 | 47.02495 | -18.22268 | 37102 ft | 517 kts | 91° |
| 2026-04-25 20:22 | 47.02575 | -18.08261 | 37109 ft | 516 kts | 91° |
| 2026-04-25 20:23 | 47.02623 | -17.97749 | 37117 ft | 515 kts | 91° |
| 2026-04-25 20:23 | 47.02662 | -17.87243 | 37098 ft | 516 kts | 91° |
| 2026-04-25 20:24 | 47.02691 | -17.76721 | 37122 ft | 517 kts | 92° |
| 2026-04-25 20:24 | 47.02711 | -17.66180 | 37133 ft | 518 kts | 92° |
| 2026-04-25 20:25 | 47.02721 | -17.55681 | 37136 ft | 518 kts | 92° |
| 2026-04-25 20:25 | 47.02722 | -17.45112 | 37132 ft | 518 kts | 92° |
| 2026-04-25 20:26 | 47.02712 | -17.34588 | 37130 ft | 516 kts | 92° |
| 2026-04-25 20:26 | 47.02695 | -17.24548 | 37138 ft | 515 kts | 92° |
| 2026-04-25 20:27 | 47.02666 | -17.14054 | 37147 ft | 515 kts | 92° |
| 2026-04-25 20:27 | 47.02629 | -17.03536 | 37151 ft | 517 kts | 92° |
| 2026-04-25 20:28 | 47.02581 | -16.92968 | 37165 ft | 518 kts | 92° |
| 2026-04-25 20:28 | 47.02524 | -16.82428 | 37167 ft | 517 kts | 93° |
| 2026-04-25 20:29 | 47.02457 | -16.71912 | 37162 ft | 515 kts | 93° |
| 2026-04-25 20:29 | 47.02382 | -16.61416 | 37154 ft | 514 kts | 93° |
| 2026-04-25 20:30 | 47.02295 | -16.50940 | 37144 ft | 515 kts | 94° |
| 2026-04-25 20:30 | 47.02199 | -16.40405 | 37177 ft | 519 kts | 94° |
| 2026-04-25 20:31 | 47.02094 | -16.29840 | 37175 ft | 518 kts | 94° |
| 2026-04-25 20:31 | 47.01979 | -16.19308 | 37164 ft | 517 kts | 94° |
| 2026-04-25 20:32 | 47.01855 | -16.08796 | 37190 ft | 516 kts | 94° |
| 2026-04-25 20:32 | 47.01720 | -15.98273 | 37180 ft | 517 kts | 94° |
| 2026-04-25 20:33 | 47.01576 | -15.87711 | 37192 ft | 518 kts | 94° |
| 2026-04-25 20:33 | 47.01475 | -15.80726 | 37185 ft | 518 kts | 94° |
| 2026-04-25 20:34 | 47.01260 | -15.66672 | 37197 ft | 517 kts | 95° |
| 2026-04-25 20:34 | 47.01086 | -15.56150 | 37200 ft | 517 kts | 95° |
| 2026-04-25 20:35 | 47.00904 | -15.45619 | 37198 ft | 517 kts | 95° |
| 2026-04-25 20:35 | 47.00712 | -15.35100 | 37202 ft | 516 kts | 95° |
| 2026-04-25 20:36 | 47.00511 | -15.24595 | 37205 ft | 515 kts | 95° |
| 2026-04-25 20:36 | 47.00300 | -15.14104 | 37179 ft | 515 kts | 95° |
| 2026-04-25 20:37 | 47.00079 | -15.03618 | 37215 ft | 516 kts | 95° |
| 2026-04-25 20:37 | 47.00192 | -14.93074 | 37219 ft | 519 kts | 91° |
| 2026-04-25 20:38 | 47.00462 | -14.82535 | 37217 ft | 517 kts | 91° |
| 2026-04-25 20:38 | 47.00730 | -14.72022 | 37217 ft | 516 kts | 91° |
| 2026-04-25 20:39 | 47.00943 | -14.63277 | 37212 ft | 517 kts | 92° |
| 2026-04-25 20:39 | 47.01149 | -14.54525 | 37220 ft | 518 kts | 92° |
| 2026-04-25 20:40 | 47.01431 | -14.42186 | 37226 ft | 517 kts | 92° |
| 2026-04-25 20:40 | 47.01658 | -14.31683 | 37224 ft | 515 kts | 92° |
| 2026-04-25 20:41 | 47.01875 | -14.21243 | 37225 ft | 516 kts | 92° |
| 2026-04-25 20:41 | 47.02085 | -14.10728 | 37229 ft | 517 kts | 92° |
| 2026-04-25 20:42 | 47.02285 | -14.00178 | 37235 ft | 516 kts | 92° |
| 2026-04-25 20:42 | 47.02475 | -13.89670 | 37235 ft | 516 kts | 92° |
| 2026-04-25 20:43 | 47.02655 | -13.79166 | 37238 ft | 516 kts | 92° |
| 2026-04-25 20:43 | 47.02826 | -13.68658 | 37226 ft | 516 kts | 92° |
| 2026-04-25 20:44 | 47.02986 | -13.58149 | 37235 ft | 516 kts | 92° |
| 2026-04-25 20:44 | 47.03138 | -13.47626 | 37238 ft | 516 kts | 92° |
| 2026-04-25 20:45 | 47.03280 | -13.37095 | 37252 ft | 516 kts | 92° |
| 2026-04-25 20:45 | 47.03412 | -13.26577 | 37245 ft | 515 kts | 92° |
| 2026-04-25 20:46 | 47.03534 | -13.16121 | 37243 ft | 512 kts | 92° |
| 2026-04-25 20:46 | 47.03644 | -13.05870 | 37242 ft | 513 kts | 92° |
| 2026-04-25 20:47 | 47.03747 | -12.95396 | 37246 ft | 514 kts | 92° |
| 2026-04-25 20:47 | 47.03841 | -12.84889 | 37249 ft | 515 kts | 92° |
| 2026-04-25 20:48 | 47.03926 | -12.74385 | 37248 ft | 515 kts | 92° |
| 2026-04-25 20:48 | 47.04000 | -12.63895 | 37246 ft | 513 kts | 92° |
| 2026-04-25 20:49 | 47.04065 | -12.53455 | 37246 ft | 512 kts | 92° |
| 2026-04-25 20:49 | 47.04120 | -12.43041 | 37243 ft | 512 kts | 92° |
| 2026-04-25 20:50 | 47.04165 | -12.32587 | 37248 ft | 513 kts | 92° |
| 2026-04-25 20:50 | 47.04202 | -12.22107 | 37252 ft | 515 kts | 92° |
| 2026-04-25 20:51 | 47.04229 | -12.11678 | 37257 ft | 514 kts | 92° |
| 2026-04-25 20:51 | 47.04246 | -12.01212 | 37254 ft | 512 kts | 92° |
| 2026-04-25 20:52 | 47.04253 | -11.92537 | 37244 ft | 511 kts | 92° |
| 2026-04-25 20:52 | 47.04252 | -11.80339 | 37248 ft | 512 kts | 93° |
| 2026-04-25 20:53 | 47.04240 | -11.69875 | 37252 ft | 513 kts | 93° |
| 2026-04-25 20:53 | 47.04220 | -11.59398 | 37256 ft | 514 kts | 93° |
| 2026-04-25 20:54 | 47.04189 | -11.48934 | 37254 ft | 512 kts | 93° |
| 2026-04-25 20:54 | 47.04150 | -11.38578 | 37248 ft | 511 kts | 93° |
| 2026-04-25 20:55 | 47.04101 | -11.28166 | 37248 ft | 511 kts | 93° |
| 2026-04-25 20:55 | 47.04042 | -11.17740 | 37250 ft | 511 kts | 93° |
| 2026-04-25 20:56 | 47.03974 | -11.07301 | 37253 ft | 514 kts | 93° |
| 2026-04-25 20:56 | 47.03896 | -10.96823 | 37257 ft | 514 kts | 93° |
| 2026-04-25 20:57 | 47.03808 | -10.86323 | 37255 ft | 514 kts | 93° |
| 2026-04-25 20:57 | 47.03711 | -10.75846 | 37255 ft | 513 kts | 93° |
| 2026-04-25 20:58 | 47.03606 | -10.65452 | 37250 ft | 513 kts | 94° |
| 2026-04-25 20:58 | 47.03490 | -10.55001 | 37250 ft | 512 kts | 94° |
| 2026-04-25 20:59 | 47.03365 | -10.44561 | 37254 ft | 512 kts | 94° |
| 2026-04-25 20:59 | 47.03230 | -10.34121 | 37253 ft | 512 kts | 94° |
| 2026-04-25 21:00 | 47.03134 | -10.27136 | 37265 ft | 512 kts | 94° |
| 2026-04-25 21:01 | 47.02850 | -10.07926 | 37270 ft | 515 kts | 94° |
| 2026-04-25 21:01 | 47.02682 | -9.97445 | 37268 ft | 514 kts | 94° |
| 2026-04-25 21:02 | 47.02503 | -9.86975 | 37250 ft | 514 kts | 94° |
| 2026-04-25 21:02 | 47.02317 | -9.76558 | 37259 ft | 514 kts | 94° |
| 2026-04-25 21:03 | 47.02119 | -9.66073 | 37264 ft | 515 kts | 94° |
| 2026-04-25 21:03 | 47.01911 | -9.55512 | 37264 ft | 516 kts | 94° |
| 2026-04-25 21:04 | 47.01695 | -9.45053 | 37255 ft | 516 kts | 94° |
| 2026-04-25 21:04 | 47.01470 | -9.34598 | 37249 ft | 512 kts | 94° |
| 2026-04-25 21:05 | 47.01235 | -9.24176 | 37242 ft | 512 kts | 94° |
| 2026-04-25 21:05 | 47.00992 | -9.13764 | 37253 ft | 511 kts | 94° |
| 2026-04-25 21:06 | 47.00738 | -9.03353 | 37242 ft | 510 kts | 94° |
| 2026-04-25 21:06 | 47.00475 | -8.92935 | 37253 ft | 513 kts | 94° |
| 2026-04-25 21:07 | 47.00203 | -8.82487 | 37254 ft | 513 kts | 94° |
| 2026-04-25 21:07 | 47.00024 | -8.72030 | 37268 ft | 513 kts | 91° |
| 2026-04-25 21:08 | 47.00032 | -8.61569 | 37257 ft | 514 kts | 92° |
| 2026-04-25 21:08 | 47.00055 | -8.51106 | 37253 ft | 514 kts | 91° |
| 2026-04-25 21:09 | 47.00057 | -8.35390 | 37257 ft | 514 kts | 91° |
| 2026-04-25 21:09 | 47.00058 | -8.24928 | 37257 ft | 513 kts | 92° |
| 2026-04-25 21:10 | 47.00038 | -8.14446 | 37241 ft | 516 kts | 91° |
| 2026-04-25 21:10 | 47.00014 | -8.03999 | 37239 ft | 516 kts | 91° |
| 2026-04-25 21:11 | 46.99815 | -7.98779 | 37263 ft | 512 kts | 102° |
| 2026-04-25 21:11 | 46.99144 | -7.93665 | 37246 ft | 512 kts | 103° |
| 2026-04-25 21:11 | 46.97709 | -7.83435 | 37251 ft | 512 kts | 103° |
| 2026-04-25 21:12 | 46.96295 | -7.73196 | 37246 ft | 513 kts | 103° |
| 2026-04-25 21:12 | 46.95108 | -7.64740 | 37239 ft | 506 kts | 103° |
| 2026-04-25 21:13 | 46.93454 | -7.53014 | 37227 ft | 502 kts | 103° |
| 2026-04-25 21:13 | 46.92066 | -7.43248 | 37233 ft | 500 kts | 103° |
| 2026-04-25 21:14 | 46.90641 | -7.33285 | 37233 ft | 501 kts | 103° |
| 2026-04-25 21:14 | 46.89207 | -7.23311 | 37229 ft | 501 kts | 103° |
| 2026-04-25 21:15 | 46.87772 | -7.13409 | 37233 ft | 501 kts | 103° |
| 2026-04-25 21:15 | 46.86320 | -7.03445 | 37233 ft | 501 kts | 103° |
| 2026-04-25 21:16 | 46.84857 | -6.93476 | 37230 ft | 501 kts | 103° |
| 2026-04-25 21:16 | 46.83388 | -6.83529 | 37228 ft | 501 kts | 103° |
| 2026-04-25 21:17 | 46.81909 | -6.73577 | 37243 ft | 501 kts | 103° |
| 2026-04-25 21:17 | 46.80424 | -6.63650 | 37230 ft | 500 kts | 103° |
| 2026-04-25 21:18 | 46.78930 | -6.53729 | 37235 ft | 500 kts | 103° |
| 2026-04-25 21:18 | 46.77431 | -6.43839 | 37224 ft | 498 kts | 103° |
| 2026-04-25 21:19 | 46.75929 | -6.33979 | 37233 ft | 498 kts | 103° |
| 2026-04-25 21:19 | 46.74416 | -6.24118 | 37227 ft | 499 kts | 103° |
| 2026-04-25 21:20 | 46.73409 | -6.17578 | 37224 ft | 499 kts | 103° |
| 2026-04-25 21:20 | 46.71359 | -6.04368 | 37230 ft | 500 kts | 103° |
| 2026-04-25 21:21 | 46.69814 | -5.94471 | 37229 ft | 502 kts | 103° |
| 2026-04-25 21:21 | 46.68267 | -5.84631 | 37236 ft | 501 kts | 103° |
| 2026-04-25 21:22 | 46.66705 | -5.74752 | 37230 ft | 500 kts | 103° |
| 2026-04-25 21:22 | 46.65138 | -5.64902 | 37238 ft | 500 kts | 102° |
| 2026-04-25 21:23 | 46.63560 | -5.55037 | 37232 ft | 501 kts | 102° |
| 2026-04-25 21:23 | 46.61977 | -5.45172 | 37226 ft | 500 kts | 101° |
| 2026-04-25 21:24 | 46.61361 | -5.35374 | 37231 ft | 499 kts | 90° |
| 2026-04-25 21:24 | 46.61066 | -5.25282 | 37234 ft | 499 kts | 94° |
| 2026-04-25 21:25 | 46.60421 | -5.15259 | 37226 ft | 497 kts | 92° |
| 2026-04-25 21:25 | 46.59981 | -5.05221 | 37219 ft | 498 kts | 93° |
| 2026-04-25 21:26 | 46.59498 | -4.96880 | 37226 ft | 498 kts | 93° |
| 2026-04-25 21:26 | 46.58980 | -4.86825 | 37222 ft | 499 kts | 93° |
| 2026-04-25 21:27 | 46.58428 | -4.76836 | 37215 ft | 497 kts | 93° |
| 2026-04-25 21:27 | 46.57878 | -4.66839 | 37211 ft | 496 kts | 93° |
| 2026-04-25 21:28 | 46.57317 | -4.56847 | 37207 ft | 496 kts | 93° |
| 2026-04-25 21:28 | 46.56748 | -4.46872 | 37214 ft | 495 kts | 93° |
| 2026-04-25 21:29 | 46.56170 | -4.36887 | 37212 ft | 495 kts | 93° |
| 2026-04-25 21:29 | 46.55583 | -4.26919 | 37207 ft | 495 kts | 94° |
| 2026-04-25 21:30 | 46.54994 | -4.17035 | 37204 ft | 494 kts | 94° |
| 2026-04-25 21:30 | 46.54489 | -4.08694 | 37206 ft | 494 kts | 94° |
| 2026-04-25 21:31 | 46.53779 | -3.97125 | 37201 ft | 495 kts | 94° |
| 2026-04-25 21:31 | 46.53160 | -3.87187 | 37208 ft | 494 kts | 94° |
| 2026-04-25 21:32 | 46.52533 | -3.77258 | 37203 ft | 493 kts | 94° |
| 2026-04-25 21:32 | 46.51897 | -3.67331 | 37202 ft | 495 kts | 94° |
| 2026-04-25 21:33 | 46.51249 | -3.57370 | 37201 ft | 496 kts | 94° |
| 2026-04-25 21:33 | 46.50594 | -3.47414 | 37196 ft | 494 kts | 94° |
| 2026-04-25 21:34 | 46.49936 | -3.37560 | 37188 ft | 493 kts | 94° |
| 2026-04-25 21:34 | 46.49272 | -3.27725 | 37188 ft | 494 kts | 94° |
| 2026-04-25 21:35 | 46.48591 | -3.17784 | 37198 ft | 496 kts | 94° |
| 2026-04-25 21:35 | 46.47901 | -3.07828 | 37198 ft | 497 kts | 94° |
| 2026-04-25 21:36 | 46.47200 | -2.97862 | 37197 ft | 496 kts | 94° |
| 2026-04-25 21:36 | 46.46494 | -2.87932 | 37198 ft | 495 kts | 94° |
| 2026-04-25 21:37 | 46.45901 | -2.79686 | 37187 ft | 494 kts | 94° |
| 2026-04-25 21:37 | 46.45059 | -2.68124 | 37189 ft | 492 kts | 94° |
| 2026-04-25 21:38 | 46.44331 | -2.58253 | 37183 ft | 493 kts | 94° |
| 2026-04-25 21:38 | 46.43593 | -2.48366 | 37185 ft | 494 kts | 94° |
| 2026-04-25 21:39 | 46.42844 | -2.38459 | 37189 ft | 495 kts | 94° |
| 2026-04-25 21:39 | 46.42085 | -2.28521 | 37193 ft | 496 kts | 94° |
| 2026-04-25 21:40 | 46.41316 | -2.18587 | 37192 ft | 495 kts | 94° |
| 2026-04-25 21:40 | 46.40548 | -2.08754 | 37188 ft | 494 kts | 94° |
| 2026-04-25 21:41 | 46.39766 | -1.98868 | 37192 ft | 493 kts | 95° |
| 2026-04-25 21:41 | 46.38985 | -1.89094 | 37187 ft | 494 kts | 95° |
| 2026-04-25 21:42 | 46.38184 | -1.79192 | 37187 ft | 495 kts | 95° |
| 2026-04-25 21:42 | 46.37373 | -1.69266 | 37191 ft | 496 kts | 95° |
| 2026-04-25 21:43 | 46.36552 | -1.59336 | 37195 ft | 497 kts | 95° |
| 2026-04-25 21:43 | 46.35723 | -1.49407 | 37179 ft | 496 kts | 95° |
| 2026-04-25 21:44 | 46.34887 | -1.39498 | 37178 ft | 496 kts | 96° |
| 2026-04-25 21:45 | 46.33622 | -1.24705 | 37182 ft | 496 kts | 96° |
| 2026-04-25 21:45 | 46.32764 | -1.14798 | 37188 ft | 497 kts | 96° |
| 2026-04-25 21:46 | 46.31894 | -1.04859 | 37190 ft | 498 kts | 96° |
| 2026-04-25 21:46 | 46.31018 | -0.94947 | 37184 ft | 496 kts | 96° |
| 2026-04-25 21:47 | 46.30133 | -0.85038 | 37180 ft | 495 kts | 96° |
| 2026-04-25 21:47 | 46.29244 | -0.75176 | 37181 ft | 495 kts | 96° |
| 2026-04-25 21:48 | 46.28342 | -0.65275 | 37179 ft | 497 kts | 96° |
| 2026-04-25 21:48 | 46.27431 | -0.55364 | 37177 ft | 498 kts | 96° |
| 2026-04-25 21:49 | 46.26509 | -0.45445 | 37181 ft | 497 kts | 97° |
| 2026-04-25 21:49 | 46.25584 | -0.35578 | 37179 ft | 495 kts | 97° |
| 2026-04-25 21:50 | 46.24652 | -0.25727 | 37177 ft | 494 kts | 97° |
| 2026-04-25 21:50 | 46.23716 | -0.15930 | 37173 ft | 496 kts | 97° |
| 2026-04-25 21:51 | 46.22764 | -0.06055 | 37183 ft | 497 kts | 97° |
| 2026-04-25 21:51 | 46.21801 | 0.03833 | 37171 ft | 497 kts | 97° |
| 2026-04-25 21:52 | 46.20828 | 0.13738 | 37178 ft | 498 kts | 97° |
| 2026-04-25 21:52 | 46.19847 | 0.23643 | 37181 ft | 499 kts | 97° |
| 2026-04-25 21:53 | 46.18855 | 0.33557 | 37174 ft | 499 kts | 97° |
| 2026-04-25 21:53 | 46.17857 | 0.43447 | 37167 ft | 498 kts | 97° |
| 2026-04-25 21:54 | 46.16850 | 0.53337 | 37172 ft | 499 kts | 97° |
| 2026-04-25 21:54 | 46.15830 | 0.63263 | 37173 ft | 500 kts | 98° |
| 2026-04-25 21:55 | 46.14803 | 0.73172 | 37179 ft | 499 kts | 98° |
| 2026-04-25 21:55 | 46.13772 | 0.83046 | 37167 ft | 498 kts | 98° |
| 2026-04-25 21:56 | 46.12728 | 0.92942 | 37166 ft | 500 kts | 98° |
| 2026-04-25 21:56 | 46.11682 | 1.02784 | 37174 ft | 500 kts | 98° |
| 2026-04-25 21:57 | 46.10622 | 1.12669 | 37175 ft | 500 kts | 98° |
| 2026-04-25 21:57 | 46.09552 | 1.22571 | 37186 ft | 500 kts | 99° |
| 2026-04-25 21:58 | 46.08471 | 1.32476 | 37185 ft | 501 kts | 99° |
| 2026-04-25 21:58 | 46.07382 | 1.42385 | 37182 ft | 500 kts | 99° |
| 2026-04-25 21:59 | 46.06286 | 1.52270 | 37182 ft | 500 kts | 99° |
| 2026-04-25 21:59 | 46.05180 | 1.62167 | 37178 ft | 500 kts | 99° |
| 2026-04-25 22:00 | 46.03508 | 1.76970 | 37174 ft | 499 kts | 99° |
| 2026-04-25 22:00 | 46.02393 | 1.86755 | 37170 ft | 498 kts | 99° |
| 2026-04-25 22:01 | 46.01261 | 1.96604 | 37168 ft | 498 kts | 100° |
| 2026-04-25 22:01 | 46.00333 | 2.04623 | 37163 ft | 498 kts | 100° |
| 2026-04-25 22:02 | 45.98994 | 2.16100 | 37162 ft | 498 kts | 100° |
| 2026-04-25 22:02 | 45.97839 | 2.25919 | 37157 ft | 498 kts | 100° |
| 2026-04-25 22:03 | 45.96673 | 2.35758 | 37158 ft | 499 kts | 100° |
| 2026-04-25 22:03 | 45.95507 | 2.45521 | 37177 ft | 499 kts | 101° |
| 2026-04-25 22:04 | 45.94324 | 2.55342 | 37174 ft | 499 kts | 101° |
| 2026-04-25 22:04 | 45.93133 | 2.65168 | 37172 ft | 499 kts | 101° |
| 2026-04-25 22:05 | 45.91933 | 2.74995 | 37164 ft | 499 kts | 101° |
| 2026-04-25 22:05 | 45.90729 | 2.84779 | 37162 ft | 496 kts | 101° |
| 2026-04-25 22:06 | 45.89522 | 2.94511 | 37157 ft | 495 kts | 101° |
| 2026-04-25 22:06 | 45.88305 | 3.04260 | 37155 ft | 496 kts | 101° |
| 2026-04-25 22:07 | 45.87285 | 3.12370 | 37159 ft | 497 kts | 101° |
| 2026-04-25 22:07 | 45.85852 | 3.23689 | 37155 ft | 495 kts | 101° |
| 2026-04-25 22:08 | 45.84605 | 3.33459 | 37155 ft | 495 kts | 101° |
| 2026-04-25 22:08 | 45.83357 | 3.43178 | 37157 ft | 495 kts | 101° |
| 2026-04-25 22:09 | 45.82108 | 3.52824 | 37152 ft | 495 kts | 101° |
| 2026-04-25 22:09 | 45.80842 | 3.62544 | 37154 ft | 496 kts | 101° |
| 2026-04-25 22:10 | 45.79568 | 3.72255 | 37157 ft | 496 kts | 101° |
| 2026-04-25 22:10 | 45.78283 | 3.81980 | 37169 ft | 496 kts | 102° |
| 2026-04-25 22:11 | 45.76992 | 3.91679 | 37169 ft | 496 kts | 102° |
| 2026-04-25 22:11 | 45.75693 | 4.01379 | 37154 ft | 496 kts | 101° |
| 2026-04-25 22:12 | 45.74383 | 4.11096 | 37155 ft | 497 kts | 101° |
| 2026-04-25 22:12 | 45.73511 | 4.17525 | 37159 ft | 497 kts | 102° |
| 2026-04-25 22:13 | 45.71724 | 4.30614 | 37170 ft | 509 kts | 102° |
| 2026-04-25 22:13 | 45.70345 | 4.40639 | 37165 ft | 517 kts | 101° |
| 2026-04-25 22:14 | 45.68940 | 4.50779 | 37167 ft | 521 kts | 102° |
| 2026-04-25 22:14 | 45.67522 | 4.60942 | 37161 ft | 521 kts | 102° |
| 2026-04-25 22:15 | 45.66094 | 4.71103 | 37150 ft | 521 kts | 101° |
| 2026-04-25 22:16 | 45.64191 | 4.84547 | 37153 ft | 518 kts | 101° |
| 2026-04-25 22:16 | 45.62752 | 4.94628 | 37145 ft | 519 kts | 102° |
| 2026-04-25 22:17 | 45.61300 | 5.04740 | 37141 ft | 519 kts | 102° |
| 2026-04-25 22:17 | 45.59843 | 5.14817 | 37138 ft | 517 kts | 102° |
| 2026-04-25 22:18 | 45.58381 | 5.24856 | 37135 ft | 516 kts | 102° |
| 2026-04-25 22:18 | 45.56911 | 5.34893 | 37136 ft | 516 kts | 102° |
| 2026-04-25 22:19 | 45.55434 | 5.44911 | 37134 ft | 516 kts | 102° |
| 2026-04-25 22:19 | 45.53948 | 5.54922 | 37138 ft | 514 kts | 102° |
| 2026-04-25 22:20 | 45.52456 | 5.64910 | 37136 ft | 515 kts | 102° |
| 2026-04-25 22:20 | 45.50954 | 5.74905 | 37140 ft | 516 kts | 102° |
| 2026-04-25 22:21 | 45.49446 | 5.84872 | 37134 ft | 517 kts | 102° |
| 2026-04-25 22:21 | 45.47874 | 5.94839 | 37139 ft | 515 kts | 109° |
| 2026-04-25 22:22 | 45.44704 | 6.03949 | 37145 ft | 514 kts | 123° |
| 2026-04-25 22:22 | 45.40854 | 6.12504 | 37140 ft | 514 kts | 121° |
| 2026-04-25 22:23 | 45.37399 | 6.21430 | 37144 ft | 515 kts | 120° |
| 2026-04-25 22:23 | 45.33728 | 6.30157 | 37147 ft | 514 kts | 121° |
| 2026-04-25 22:24 | 45.30156 | 6.38977 | 37151 ft | 516 kts | 121° |
| 2026-04-25 22:24 | 45.26525 | 6.47740 | 37153 ft | 515 kts | 121° |
| 2026-04-25 22:25 | 45.22926 | 6.56471 | 37157 ft | 513 kts | 121° |
| 2026-04-25 22:25 | 45.21126 | 6.60831 | 37143 ft | 502 kts | 121° |
| 2026-04-25 22:25 | 45.19376 | 6.65031 | 37140 ft | 499 kts | 121° |
| 2026-04-25 22:26 | 45.15840 | 6.73535 | 37134 ft | 503 kts | 121° |
| 2026-04-25 22:26 | 45.12284 | 6.82069 | 36719 ft | 502 kts | 121° |
| 2026-04-25 22:26 | 45.10498 | 6.86336 | 36055 ft | 504 kts | 121° |
| 2026-04-25 22:27 | 45.08714 | 6.90599 | 35343 ft | 503 kts | 121° |
| 2026-04-25 22:27 | 45.06938 | 6.94840 | 34618 ft | 501 kts | 121° |
| 2026-04-25 22:27 | 45.05161 | 6.99074 | 33879 ft | 499 kts | 121° |
| 2026-04-25 22:27 | 45.03392 | 7.03280 | 33096 ft | 496 kts | 121° |
| 2026-04-25 22:28 | 45.01632 | 7.07459 | 32328 ft | 493 kts | 121° |
| 2026-04-25 22:28 | 44.99923 | 7.11605 | 32105 ft | 483 kts | 116° |
| 2026-04-25 22:28 | 44.98594 | 7.15953 | 30840 ft | 490 kts | 107° |
| 2026-04-25 22:28 | 44.97817 | 7.20697 | 29367 ft | 499 kts | 102° |
| 2026-04-25 22:29 | 44.96664 | 7.25303 | 28583 ft | 493 kts | 114° |
| 2026-04-25 22:29 | 44.95107 | 7.29594 | 27743 ft | 487 kts | 119° |
| 2026-04-25 22:29 | 44.93391 | 7.33681 | 27004 ft | 480 kts | 121° |
| 2026-04-25 22:30 | 44.89827 | 7.41532 | 25436 ft | 470 kts | 123° |
| 2026-04-25 22:30 | 44.88030 | 7.45372 | 24839 ft | 463 kts | 123° |
| 2026-04-25 22:30 | 44.86290 | 7.49053 | 24847 ft | 439 kts | 123° |
| 2026-04-25 22:30 | 44.85193 | 7.51364 | 24794 ft | 419 kts | 123° |
| 2026-04-25 22:31 | 44.83115 | 7.55726 | 24684 ft | 383 kts | 123° |
| 2026-04-25 22:31 | 44.81937 | 7.58951 | 24281 ft | 365 kts | 104° |
| 2026-04-25 22:31 | 44.81672 | 7.62464 | 23746 ft | 360 kts | 80° |
| 2026-04-25 22:31 | 44.82311 | 7.65781 | 23203 ft | 354 kts | 63° |
| 2026-04-25 22:32 | 44.83559 | 7.68720 | 22707 ft | 347 kts | 50° |
| 2026-04-25 22:32 | 44.85048 | 7.71384 | 22200 ft | 345 kts | 49° |
| 2026-04-25 22:32 | 44.86521 | 7.74043 | 21707 ft | 343 kts | 52° |
| 2026-04-25 22:32 | 44.87877 | 7.76794 | 21224 ft | 341 kts | 53° |
| 2026-04-25 22:33 | 44.89194 | 7.79525 | 21020 ft | 329 kts | 52° |
| 2026-04-25 22:33 | 44.90478 | 7.82088 | 20895 ft | 314 kts | 51° |
| 2026-04-25 22:33 | 44.91749 | 7.84607 | 20331 ft | 315 kts | 55° |
| 2026-04-25 22:33 | 44.92539 | 7.87494 | 19822 ft | 315 kts | 76° |
| 2026-04-25 22:34 | 44.92736 | 7.90537 | 19250 ft | 307 kts | 83° |
| 2026-04-25 22:34 | 44.92842 | 7.93520 | 18712 ft | 304 kts | 84° |
| 2026-04-25 22:34 | 44.92945 | 7.96517 | 18139 ft | 307 kts | 84° |
| 2026-04-25 22:34 | 44.93063 | 7.99507 | 17583 ft | 304 kts | 83° |
| 2026-04-25 22:35 | 44.93181 | 8.02454 | 17054 ft | 298 kts | 84° |
| 2026-04-25 22:35 | 44.93291 | 8.05354 | 16528 ft | 293 kts | 83° |
| 2026-04-25 22:35 | 44.93399 | 8.08207 | 16118 ft | 285 kts | 84° |
| 2026-04-25 22:35 | 44.93503 | 8.10975 | 16023 ft | 283 kts | 84° |
| 2026-04-25 22:36 | 44.93612 | 8.13787 | 15945 ft | 290 kts | 84° |
| 2026-04-25 22:36 | 44.93719 | 8.16636 | 15849 ft | 291 kts | 84° |
| 2026-04-25 22:36 | 44.93819 | 8.19417 | 15740 ft | 280 kts | 84° |
| 2026-04-25 22:36 | 44.93921 | 8.22180 | 15642 ft | 285 kts | 84° |
| 2026-04-25 22:37 | 44.94027 | 8.24996 | 15542 ft | 289 kts | 84° |
| 2026-04-25 22:37 | 44.94128 | 8.27811 | 15254 ft | 282 kts | 84° |
| 2026-04-25 22:37 | 44.94444 | 8.30449 | 14969 ft | 276 kts | 71° |
| 2026-04-25 22:37 | 44.94981 | 8.33065 | 14679 ft | 279 kts | 72° |
| 2026-04-25 22:38 | 44.95511 | 8.35736 | 14389 ft | 277 kts | 72° |
| 2026-04-25 22:38 | 44.96010 | 8.38269 | 14112 ft | 270 kts | 72° |
| 2026-04-25 22:38 | 44.96523 | 8.40841 | 13834 ft | 273 kts | 72° |
| 2026-04-25 22:38 | 44.97036 | 8.43423 | 13549 ft | 273 kts | 72° |
| 2026-04-25 22:39 | 44.97547 | 8.46002 | 13252 ft | 272 kts | 72° |
| 2026-04-25 22:39 | 44.98057 | 8.48582 | 12969 ft | 271 kts | 72° |
| 2026-04-25 22:39 | 44.98564 | 8.51143 | 12694 ft | 271 kts | 72° |
| 2026-04-25 22:39 | 44.99065 | 8.53660 | 12421 ft | 262 kts | 71° |
| 2026-04-25 22:40 | 44.99914 | 8.55908 | 12149 ft | 263 kts | 47° |
| 2026-04-25 22:40 | 45.01369 | 8.57444 | 11888 ft | 263 kts | 23° |
| 2026-04-25 22:40 | 45.03148 | 8.57961 | 11674 ft | 263 kts | 359° |
| 2026-04-25 22:40 | 45.04963 | 8.57580 | 11427 ft | 264 kts | 350° |
| 2026-04-25 22:41 | 45.06762 | 8.57070 | 11135 ft | 264 kts | 349° |
| 2026-04-25 22:41 | 45.08558 | 8.56553 | 10802 ft | 262 kts | 349° |
| 2026-04-25 22:41 | 45.10339 | 8.56059 | 10473 ft | 260 kts | 349° |
| 2026-04-25 22:41 | 45.12116 | 8.55571 | 10137 ft | 259 kts | 349° |
| 2026-04-25 22:42 | 45.13857 | 8.55088 | 9790 ft | 250 kts | 349° |
| 2026-04-25 22:42 | 45.15545 | 8.54618 | 9420 ft | 245 kts | 349° |
| 2026-04-25 22:42 | 45.17213 | 8.54154 | 9056 ft | 242 kts | 349° |
| 2026-04-25 22:42 | 45.18840 | 8.53702 | 8703 ft | 242 kts | 349° |
| 2026-04-25 22:43 | 45.20490 | 8.53243 | 8352 ft | 240 kts | 349° |
| 2026-04-25 22:43 | 45.22127 | 8.52788 | 7997 ft | 240 kts | 349° |
| 2026-04-25 22:43 | 45.23761 | 8.52334 | 7651 ft | 239 kts | 349° |
| 2026-04-25 22:43 | 45.25391 | 8.51883 | 7311 ft | 238 kts | 349° |
| 2026-04-25 22:44 | 45.27011 | 8.51432 | 6966 ft | 236 kts | 350° |
| 2026-04-25 22:44 | 45.28641 | 8.50980 | 6632 ft | 241 kts | 349° |
| 2026-04-25 22:44 | 45.30286 | 8.50616 | 6278 ft | 238 kts | 359° |
| 2026-04-25 22:44 | 45.31871 | 8.51234 | 5887 ft | 238 kts | 29° |
| 2026-04-25 22:45 | 45.33038 | 8.52855 | 5527 ft | 238 kts | 58° |
| 2026-04-25 22:45 | 45.33559 | 8.55058 | 5239 ft | 235 kts | 76° |
| 2026-04-25 22:45 | 45.33874 | 8.57348 | 4951 ft | 236 kts | 78° |
| 2026-04-25 22:45 | 45.34161 | 8.59651 | 4655 ft | 236 kts | 79° |
| 2026-04-25 22:46 | 45.34344 | 8.61970 | 4348 ft | 236 kts | 83° |
| 2026-04-25 22:46 | 45.34490 | 8.64283 | 4065 ft | 235 kts | 83° |
| 2026-04-25 22:46 | 45.34633 | 8.66566 | 3773 ft | 234 kts | 84° |
| 2026-04-25 22:46 | 45.34784 | 8.68865 | 3489 ft | 234 kts | 83° |
| 2026-04-25 22:47 | 45.34935 | 8.71162 | 3182 ft | 233 kts | 83° |
| 2026-04-25 22:47 | 45.35086 | 8.73450 | 2968 ft | 230 kts | 84° |
| 2026-04-25 22:47 | 45.35258 | 8.75702 | 2968 ft | 229 kts | 79° |
| 2026-04-25 22:47 | 45.36046 | 8.77577 | 2941 ft | 219 kts | 37° |
| 2026-04-25 22:48 | 45.37341 | 8.78410 | 2943 ft | 193 kts | 16° |
| 2026-04-25 22:48 | 45.38608 | 8.78885 | 2967 ft | 186 kts | 13° |
| 2026-04-25 22:48 | 45.39868 | 8.79311 | 2963 ft | 186 kts | 9° |
| 2026-04-25 22:48 | 45.41159 | 8.79306 | 2962 ft | 185 kts | 352° |
| 2026-04-25 22:49 | 45.42430 | 8.79007 | 2972 ft | 187 kts | 350° |
| 2026-04-25 22:49 | 45.43704 | 8.78675 | 2997 ft | 185 kts | 349° |
| 2026-04-25 22:49 | 45.44979 | 8.78324 | 2997 ft | 184 kts | 348° |
| 2026-04-25 22:49 | 45.46170 | 8.77997 | 2989 ft | 167 kts | 348° |
| 2026-04-25 22:50 | 45.47316 | 8.77681 | 2973 ft | 169 kts | 348° |
| 2026-04-25 22:50 | 45.48455 | 8.77367 | 2994 ft | 166 kts | 348° |
| 2026-04-25 22:50 | 45.49595 | 8.77052 | 2993 ft | 166 kts | 348° |
| 2026-04-25 22:50 | 45.50743 | 8.76736 | 2877 ft | 170 kts | 348° |
| 2026-04-25 22:51 | 45.51898 | 8.76417 | 2664 ft | 168 kts | 348° |
| 2026-04-25 22:51 | 45.53045 | 8.76101 | 2441 ft | 168 kts | 348° |
| 2026-04-25 22:51 | 45.54190 | 8.75786 | 2229 ft | 166 kts | 348° |
| 2026-04-25 22:51 | 45.55278 | 8.75488 | 2138 ft | 159 kts | 344° |
| 2026-04-25 22:52 | 45.56377 | 8.75189 | 1823 ft | 160 kts | 346° |
| 2026-04-25 22:52 | 45.57452 | 8.74896 | 1446 ft | 151 kts | 347° |
| 2026-04-25 22:52 | 45.58461 | 8.74612 | 1211 ft | 147 kts | 348° |
| 2026-04-25 22:52 | 45.59140 | 8.74424 | 1097 ft | 147 kts | 348° |
| 2026-04-25 22:53 | 45.60464 | 8.74051 | 927 ft | 147 kts | 350° |
| 2026-04-25 22:53 | 45.61470 | 8.73781 | 790 ft | 145 kts | 350° |
| 2026-04-25 22:53 | 45.62374 | 8.73534 | 724 ft | 106 kts | 349° |
| 2026-04-25 22:53 | 45.62886 | 8.73385 | 724 ft | 54 kts | 349° |
| 2026-04-25 22:54 | 45.63182 | 8.73200 | 724 ft | 38 kts | 317° |
| 2026-04-25 22:54 | 45.63322 | 8.72940 | 726 ft | 30 kts | 303° |
| 2026-04-25 22:54 | 45.63408 | 8.72703 | 724 ft | 25 kts | 277° |
| 2026-04-25 22:54 | 45.63387 | 8.72468 | 725 ft | 24 kts | 259° |
| 2026-04-25 22:55 | 45.63356 | 8.72239 | 722 ft | 23 kts | 259° |
| 2026-04-25 22:55 | 45.63331 | 8.72049 | 725 ft | 13 kts | 259° |
| 2026-04-25 22:55 | 45.63325 | 8.72005 | 724 ft | 1 kts | 259° |
| 2026-04-25 22:55 | 45.63315 | 8.71988 | 724 ft | 5 kts | 220° |
| 2026-04-25 22:56 | 45.63258 | 8.71977 | 723 ft | 12 kts | 171° |
| 2026-04-25 22:56 | 45.63149 | 8.72006 | 723 ft | 17 kts | 170° |
| 2026-04-25 22:56 | 45.63030 | 8.72041 | 722 ft | 18 kts | 168° |
| 2026-04-25 22:56 | 45.62913 | 8.72073 | 723 ft | 17 kts | 168° |
| 2026-04-25 22:57 | 45.62798 | 8.72106 | 723 ft | 17 kts | 169° |
| 2026-04-25 22:57 | 45.62730 | 8.72119 | 723 ft | 0 kts | 186° |
| 2026-04-25 22:57 | 45.62699 | 8.72097 | 725 ft | 10 kts | 221° |
| 2026-04-25 22:57 | 45.62676 | 8.72009 | 724 ft | 10 kts | 258° |
| 2026-04-25 22:58 | 45.62661 | 8.71908 | 724 ft | 11 kts | 261° |
| 2026-04-25 22:58 | 45.62650 | 8.71810 | 723 ft | 9 kts | 259° |
| 2026-04-25 22:58 | 45.62647 | 8.71746 | 722 ft | 1 kts | 296° |
| 2026-04-25 22:58 | 45.62651 | 8.71743 | 723 ft | 1 kts | 321° |
| 2026-04-25 22:59 | 45.62690 | 8.71709 | 726 ft | 6 kts | 335° |
| 2026-04-25 22:59 | 45.62714 | 8.71696 | 726 ft | 3 kts | 339° |
| 2026-04-25 22:59 | 45.62721 | 8.71693 | 725 ft | 0 kts | 339° |